Observation data for Palo Duro Canyon State Park Rim on 09/11/2017      Previous  Date       Current Mesonet Observations  Soil Data  Daily Summary Page  Observations in Plain Language
KPD1 110500Z 17006KT 19/10 A3027 RMK A01 T01940096  RH  053%=      5-min Rain = 0
KPD1 110501Z 16006KT 19/10 A3027 RMK A01 T01940096  RH  053%=      5-min Rain = 0
KPD1 110502Z 17006KT 19/10 A3027 RMK A01 T01940096  RH  053%=      5-min Rain = 0
KPD1 110503Z 16006KT 19/10 A3027 RMK A01 T01940095  RH  053%=      5-min Rain = 0
KPD1 110504Z 17006KT 19/10 A3027 RMK A01 T01940095  RH  053%=      5-min Rain = 0
KPD1 110505Z 17006KT 19/10 A3027 RMK A01 T01940096  RH  053%=      5-min Rain = 0
KPD1 110506Z 16006KT 19/10 A3027 RMK A01 T01940096  RH  053%=      5-min Rain = 0
KPD1 110507Z 16007KT 19/10 A3027 RMK A01 T01930096  RH  053%=      5-min Rain = 0
KPD1 110508Z 16007KT 19/10 A3027 RMK A01 T01930095  RH  053%=      5-min Rain = 0
KPD1 110509Z 17006KT 19/10 A3027 RMK A01 T01930095  RH  053%=      5-min Rain = 0
KPD1 110510Z 17007KT 19/09 A3027 RMK A01 T01920094  RH  053%=      5-min Rain = 0
KPD1 110511Z 17006KT 19/09 A3027 RMK A01 T01930094  RH  053%=      5-min Rain = 0
KPD1 110512Z 16006KT 19/10 A3027 RMK A01 T01930095  RH  053%=      5-min Rain = 0
KPD1 110513Z 16006KT 19/09 A3027 RMK A01 T01920094  RH  053%=      5-min Rain = 0
KPD1 110514Z 17006KT 19/09 A3027 RMK A01 T01920094  RH  053%=      5-min Rain = 0
KPD1 110515Z 17008KT 19/09 A3027 RMK A01 T01920094  RH  053%=      5-min Rain = 0
KPD1 110516Z 17006KT 19/09 A3027 RMK A01 T01910094  RH  053%=      5-min Rain = 0
KPD1 110517Z 17006KT 19/09 A3027 RMK A01 T01910094  RH  053%=      5-min Rain = 0
KPD1 110518Z 16007KT 19/09 A3027 RMK A01 T01910094  RH  053%=      5-min Rain = 0
KPD1 110519Z 17007KT 19/09 A3027 RMK A01 T01910093  RH  053%=      5-min Rain = 0
KPD1 110520Z 17007KT 19/09 A3027 RMK A01 T01910093  RH  053%=      5-min Rain = 0
KPD1 110521Z 17007KT 19/09 A3027 RMK A01 T01910093  RH  053%=      5-min Rain = 0
KPD1 110522Z 17007KT 19/09 A3027 RMK A01 T01910093  RH  053%=      5-min Rain = 0
KPD1 110523Z 17006KT 19/09 A3027 RMK A01 T01910093  RH  053%=      5-min Rain = 0
KPD1 110524Z 17007KT 19/09 A3027 RMK A01 T01910093  RH  053%=      5-min Rain = 0
KPD1 110525Z 17007KT 19/09 A3027 RMK A01 T01900093  RH  053%=      5-min Rain = 0
KPD1 110526Z 17007KT 19/09 A3027 RMK A01 T01900093  RH  053%=      5-min Rain = 0
KPD1 110527Z 17007KT 19/09 A3027 RMK A01 T01900092  RH  053%=      5-min Rain = 0
KPD1 110528Z 17006KT 19/09 A3027 RMK A01 T01900092  RH  053%=      5-min Rain = 0
KPD1 110529Z 16006KT 19/09 A3027 RMK A01 T01900093  RH  053%=      5-min Rain = 0
KPD1 110530Z 17006KT 19/09 A3027 RMK A01 T01890093  RH  053%=      5-min Rain = 0
KPD1 110531Z 17007KT 19/09 A3027 RMK A01 T01890093  RH  054%=      5-min Rain = 0
KPD1 110532Z 17007KT 19/09 A3027 RMK A01 T01890093  RH  054%=      5-min Rain = 0
KPD1 110533Z 17006KT 19/09 A3027 RMK A01 T01890093  RH  054%=      5-min Rain = 0
KPD1 110534Z 17006KT 19/09 A3027 RMK A01 T01880093  RH  054%=      5-min Rain = 0
KPD1 110535Z 17007KT 19/09 A3027 RMK A01 T01880093  RH  054%=      5-min Rain = 0
KPD1 110536Z 17007KT 19/09 A3027 RMK A01 T01870093  RH  054%=      5-min Rain = 0
KPD1 110537Z 16007KT 19/09 A3027 RMK A01 T01870093  RH  054%=      5-min Rain = 0
KPD1 110538Z 17006KT 19/09 A3027 RMK A01 T01870093  RH  054%=      5-min Rain = 0
KPD1 110539Z 17007KT 19/09 A3027 RMK A01 T01870092  RH  054%=      5-min Rain = 0
KPD1 110540Z 17007KT 19/09 A3026 RMK A01 T01870093  RH  054%=      5-min Rain = 0
KPD1 110541Z 17008KT 19/09 A3026 RMK A01 T01870093  RH  054%=      5-min Rain = 0
KPD1 110542Z 17008KT 19/09 A3026 RMK A01 T01870092  RH  054%=      5-min Rain = 0
KPD1 110543Z 17008KT 19/09 A3026 RMK A01 T01870091  RH  054%=      5-min Rain = 0
KPD1 110544Z 17007KT 19/09 A3026 RMK A01 T01880091  RH  053%=      5-min Rain = 0
KPD1 110545Z 18007KT 19/09 A3026 RMK A01 T01890092  RH  053%=      5-min Rain = 0
KPD1 110546Z 17006KT 19/09 A3026 RMK A01 T01890092  RH  053%=      5-min Rain = 0
KPD1 110547Z 16008KT 19/09 A3026 RMK A01 T01880092  RH  053%=      5-min Rain = 0
KPD1 110548Z 17008KT 19/09 A3026 RMK A01 T01880091  RH  053%=      5-min Rain = 0
KPD1 110549Z 17007KT 19/09 A3026 RMK A01 T01880091  RH  053%=      5-min Rain = 0
KPD1 110550Z 17008KT 19/09 A3026 RMK A01 T01880091  RH  053%=      5-min Rain = 0
KPD1 110551Z 17007KT 19/09 A3026 RMK A01 T01880091  RH  053%=      5-min Rain = 0
KPD1 110552Z 17008KT 19/09 A3026 RMK A01 T01880091  RH  053%=      5-min Rain = 0
KPD1 110553Z 18007KT 19/09 A3026 RMK A01 T01880090  RH  053%=      5-min Rain = 0
KPD1 110554Z 18007KT 19/09 A3026 RMK A01 T01880091  RH  053%=      5-min Rain = 0
KPD1 110555Z 18007KT 19/09 A3026 RMK A01 T01870090  RH  053%=      5-min Rain = 0
KPD1 110556Z 17006KT 19/09 A3026 RMK A01 T01870090  RH  053%=      5-min Rain = 0
KPD1 110557Z 18006KT 19/09 A3026 RMK A01 T01870090  RH  053%=      5-min Rain = 0
KPD1 110558Z 17007KT 19/09 A3026 RMK A01 T01860090  RH  053%=      5-min Rain = 0
KPD1 110559Z 18006KT 19/09 A3026 RMK A01 T01860090  RH  054%=      5-min Rain = 0
KPD1 110600Z 17007KT 19/09 A3026 RMK A01 T01850090  RH  054%=      5-min Rain = 0
KPD1 110601Z 17007KT 19/09 A3026 RMK A01 T01850089  RH  054%=      5-min Rain = 0
KPD1 110602Z 17006KT 19/09 A3026 RMK A01 T01850089  RH  054%=      5-min Rain = 0
KPD1 110603Z 17006KT 18/09 A3026 RMK A01 T01840089  RH  054%=      5-min Rain = 0
KPD1 110604Z 17006KT 19/09 A3026 RMK A01 T01850089  RH  054%=      5-min Rain = 0
KPD1 110605Z 17007KT 18/09 A3026 RMK A01 T01840089  RH  054%=      5-min Rain = 0
KPD1 110606Z 17008KT 18/09 A3026 RMK A01 T01840089  RH  054%=      5-min Rain = 0
KPD1 110607Z 17006KT 19/09 A3026 RMK A01 T01850089  RH  054%=      5-min Rain = 0
KPD1 110608Z 17007KT 18/09 A3026 RMK A01 T01840089  RH  054%=      5-min Rain = 0
KPD1 110609Z 17007KT 18/09 A3026 RMK A01 T01840089  RH  054%=      5-min Rain = 0
KPD1 110610Z 16007KT 18/09 A3026 RMK A01 T01840088  RH  054%=      5-min Rain = 0
KPD1 110611Z 16006KT 18/09 A3027 RMK A01 T01840088  RH  054%=      5-min Rain = 0
KPD1 110612Z 16006KT 18/09 A3026 RMK A01 T01840088  RH  054%=      5-min Rain = 0
KPD1 110613Z 16007KT 18/09 A3026 RMK A01 T01840088  RH  054%=      5-min Rain = 0
KPD1 110614Z 17006KT 18/09 A3026 RMK A01 T01840088  RH  054%=      5-min Rain = 0
KPD1 110615Z 16006KT 18/09 A3026 RMK A01 T01840089  RH  054%=      5-min Rain = 0
KPD1 110616Z 17006KT 18/09 A3026 RMK A01 T01830088  RH  054%=      5-min Rain = 0
KPD1 110617Z 16006KT 18/09 A3026 RMK A01 T01830088  RH  054%=      5-min Rain = 0
KPD1 110618Z 16006KT 18/09 A3026 RMK A01 T01830088  RH  054%=      5-min Rain = 0
KPD1 110619Z 16007KT 18/09 A3026 RMK A01 T01820088  RH  054%=      5-min Rain = 0
KPD1 110620Z 16006KT 18/09 A3026 RMK A01 T01820088  RH  054%=      5-min Rain = 0
KPD1 110621Z 16006KT 18/09 A3026 RMK A01 T01820088  RH  054%=      5-min Rain = 0
KPD1 110622Z 16005KT 18/09 A3026 RMK A01 T01820089  RH  054%=      5-min Rain = 0
KPD1 110623Z 16005KT 18/09 A3026 RMK A01 T01810089  RH  055%=      5-min Rain = 0
KPD1 110624Z 16006KT 18/09 A3026 RMK A01 T01810089  RH  055%=      5-min Rain = 0
KPD1 110625Z 16006KT 18/09 A3026 RMK A01 T01810089  RH  055%=      5-min Rain = 0
KPD1 110626Z 16006KT 18/09 A3026 RMK A01 T01800089  RH  055%=      5-min Rain = 0
KPD1 110627Z 15005KT 18/09 A3026 RMK A01 T01800089  RH  055%=      5-min Rain = 0
KPD1 110628Z 16004KT 18/09 A3026 RMK A01 T01790088  RH  055%=      5-min Rain = 0
KPD1 110629Z 16004KT 18/09 A3026 RMK A01 T01780088  RH  056%=      5-min Rain = 0
KPD1 110630Z 16005KT 18/09 A3027 RMK A01 T01780088  RH  056%=      5-min Rain = 0
KPD1 110631Z 16006KT 18/09 A3027 RMK A01 T01770089  RH  056%=      5-min Rain = 0
KPD1 110632Z 16006KT 18/09 A3027 RMK A01 T01770088  RH  056%=      5-min Rain = 0
KPD1 110633Z 17007KT 18/09 A3027 RMK A01 T01770088  RH  056%=      5-min Rain = 0
KPD1 110634Z 16005KT 18/09 A3027 RMK A01 T01770088  RH  056%=      5-min Rain = 0
KPD1 110635Z 15006KT 18/09 A3027 RMK A01 T01770088  RH  056%=      5-min Rain = 0
KPD1 110636Z 16006KT 18/09 A3027 RMK A01 T01770088  RH  056%=      5-min Rain = 0
KPD1 110637Z 16005KT 18/09 A3027 RMK A01 T01770088  RH  056%=      5-min Rain = 0
KPD1 110638Z 15005KT 18/09 A3027 RMK A01 T01770088  RH  056%=      5-min Rain = 0
KPD1 110639Z 15005KT 18/09 A3026 RMK A01 T01760088  RH  056%=      5-min Rain = 0
KPD1 110640Z 16006KT 18/09 A3026 RMK A01 T01760088  RH  056%=      5-min Rain = 0
KPD1 110641Z 16006KT 18/09 A3026 RMK A01 T01760088  RH  056%=      5-min Rain = 0
KPD1 110642Z 16006KT 18/09 A3026 RMK A01 T01760088  RH  056%=      5-min Rain = 0
KPD1 110643Z 15006KT 18/09 A3026 RMK A01 T01760088  RH  056%=      5-min Rain = 0
KPD1 110644Z 16006KT 18/09 A3026 RMK A01 T01750088  RH  057%=      5-min Rain = 0
KPD1 110645Z 16006KT 18/09 A3026 RMK A01 T01750088  RH  057%=      5-min Rain = 0
KPD1 110646Z 16006KT 18/09 A3026 RMK A01 T01750088  RH  057%=      5-min Rain = 0
KPD1 110647Z 16007KT 18/09 A3026 RMK A01 T01750088  RH  057%=      5-min Rain = 0
KPD1 110648Z 16007KT 18/09 A3026 RMK A01 T01750088  RH  056%=      5-min Rain = 0
KPD1 110649Z 16006KT 18/09 A3026 RMK A01 T01750088  RH  056%=      5-min Rain = 0
KPD1 110650Z 16007KT 18/09 A3026 RMK A01 T01760088  RH  056%=      5-min Rain = 0
KPD1 110651Z 16008KT 18/09 A3026 RMK A01 T01760088  RH  056%=      5-min Rain = 0
KPD1 110652Z 16005KT 18/09 A3026 RMK A01 T01770088  RH  056%=      5-min Rain = 0
KPD1 110653Z 16007KT 18/09 A3026 RMK A01 T01770087  RH  056%=      5-min Rain = 0
KPD1 110654Z 16006KT 18/09 A3026 RMK A01 T01770087  RH  056%=      5-min Rain = 0
KPD1 110655Z 17005KT 18/09 A3026 RMK A01 T01760088  RH  056%=      5-min Rain = 0
KPD1 110656Z 16006KT 18/09 A3026 RMK A01 T01760087  RH  056%=      5-min Rain = 0
KPD1 110657Z 16006KT 18/09 A3026 RMK A01 T01750087  RH  056%=      5-min Rain = 0
KPD1 110658Z 17006KT 18/09 A3026 RMK A01 T01750087  RH  056%=      5-min Rain = 0
KPD1 110659Z 16007KT 18/09 A3026 RMK A01 T01750087  RH  056%=      5-min Rain = 0
KPD1 110700Z 17006KT 18/09 A3026 RMK A01 T01750087  RH  056%=      5-min Rain = 0
KPD1 110701Z 17007KT 18/09 A3026 RMK A01 T01750087  RH  056%=      5-min Rain = 0
KPD1 110702Z 16006KT 18/09 A3026 RMK A01 T01750087  RH  056%=      5-min Rain = 0
KPD1 110703Z 17006KT 17/09 A3026 RMK A01 T01740087  RH  056%=      5-min Rain = 0
KPD1 110704Z 17007KT 17/09 A3026 RMK A01 T01740087  RH  056%=      5-min Rain = 0
KPD1 110705Z 17006KT 17/09 A3026 RMK A01 T01740087  RH  056%=      5-min Rain = 0
KPD1 110706Z 17005KT 17/09 A3026 RMK A01 T01740086  RH  056%=      5-min Rain = 0
KPD1 110707Z 16006KT 17/09 A3026 RMK A01 T01740087  RH  056%=      5-min Rain = 0
KPD1 110708Z 17006KT 17/09 A3026 RMK A01 T01730086  RH  056%=      5-min Rain = 0
KPD1 110709Z 17006KT 17/09 A3026 RMK A01 T01730086  RH  057%=      5-min Rain = 0
KPD1 110710Z 17007KT 17/09 A3026 RMK A01 T01730086  RH  057%=      5-min Rain = 0
KPD1 110711Z 18006KT 17/09 A3026 RMK A01 T01730085  RH  056%=      5-min Rain = 0
KPD1 110712Z 17006KT 17/09 A3026 RMK A01 T01730085  RH  056%=      5-min Rain = 0
KPD1 110713Z 17006KT 17/09 A3026 RMK A01 T01730085  RH  056%=      5-min Rain = 0
KPD1 110714Z 17007KT 17/09 A3026 RMK A01 T01730085  RH  056%=      5-min Rain = 0
KPD1 110715Z 17008KT 17/09 A3026 RMK A01 T01740086  RH  056%=      5-min Rain = 0
KPD1 110716Z 17007KT 17/09 A3026 RMK A01 T01740085  RH  056%=      5-min Rain = 0
KPD1 110717Z 17007KT 17/09 A3026 RMK A01 T01740085  RH  056%=      5-min Rain = 0
KPD1 110718Z 17006KT 17/09 A3026 RMK A01 T01740085  RH  056%=      5-min Rain = 0
KPD1 110719Z 17007KT 17/09 A3026 RMK A01 T01740085  RH  056%=      5-min Rain = 0
KPD1 110720Z 16005KT 17/09 A3026 RMK A01 T01740085  RH  056%=      5-min Rain = 0
KPD1 110721Z 17004KT 17/09 A3026 RMK A01 T01740085  RH  056%=      5-min Rain = 0
KPD1 110722Z 17007KT 17/09 A3026 RMK A01 T01740085  RH  056%=      5-min Rain = 0
KPD1 110723Z 16006KT 17/09 A3026 RMK A01 T01730085  RH  056%=      5-min Rain = 0
KPD1 110724Z 17006KT 17/09 A3026 RMK A01 T01730085  RH  056%=      5-min Rain = 0
KPD1 110725Z 17006KT 17/09 A3026 RMK A01 T01730085  RH  056%=      5-min Rain = 0
KPD1 110726Z 17005KT 17/09 A3026 RMK A01 T01720085  RH  056%=      5-min Rain = 0
KPD1 110727Z 17005KT 17/09 A3026 RMK A01 T01720085  RH  056%=      5-min Rain = 0
KPD1 110728Z 16005KT 17/09 A3026 RMK A01 T01720085  RH  057%=      5-min Rain = 0
KPD1 110729Z 17007KT 17/09 A3026 RMK A01 T01710085  RH  057%=      5-min Rain = 0
KPD1 110730Z 16007KT 17/08 A3026 RMK A01 T01710084  RH  057%=      5-min Rain = 0
KPD1 110731Z 17005KT 17/08 A3026 RMK A01 T01710084  RH  056%=      5-min Rain = 0
KPD1 110732Z 17007KT 17/08 A3026 RMK A01 T01720084  RH  056%=      5-min Rain = 0
KPD1 110733Z 17006KT 17/09 A3026 RMK A01 T01710085  RH  057%=      5-min Rain = 0
KPD1 110734Z 16006KT 17/09 A3026 RMK A01 T01710085  RH  057%=      5-min Rain = 0
KPD1 110735Z 17006KT 17/08 A3026 RMK A01 T01710084  RH  057%=      5-min Rain = 0
KPD1 110736Z 17006KT 17/09 A3026 RMK A01 T01710085  RH  057%=      5-min Rain = 0
KPD1 110737Z 17007KT 17/09 A3026 RMK A01 T01700085  RH  057%=      5-min Rain = 0
KPD1 110738Z 18007KT 17/08 A3026 RMK A01 T01700084  RH  057%=      5-min Rain = 0
KPD1 110739Z 17006KT 17/09 A3026 RMK A01 T01700085  RH  057%=      5-min Rain = 0
KPD1 110740Z 17007KT 17/08 A3026 RMK A01 T01700084  RH  057%=      5-min Rain = 0
KPD1 110741Z 17006KT 17/08 A3026 RMK A01 T01700084  RH  057%=      5-min Rain = 0
KPD1 110742Z 17005KT 17/08 A3026 RMK A01 T01700084  RH  057%=      5-min Rain = 0
KPD1 110743Z 17005KT 17/08 A3026 RMK A01 T01700084  RH  057%=      5-min Rain = 0
KPD1 110744Z 17007KT 17/08 A3026 RMK A01 T01690084  RH  057%=      5-min Rain = 0
KPD1 110745Z 17006KT 17/08 A3026 RMK A01 T01690084  RH  057%=      5-min Rain = 0
KPD1 110746Z 17006KT 17/08 A3026 RMK A01 T01690084  RH  057%=      5-min Rain = 0
KPD1 110747Z 17006KT 17/08 A3026 RMK A01 T01690084  RH  057%=      5-min Rain = 0
KPD1 110748Z 17006KT 17/08 A3026 RMK A01 T01690084  RH  057%=      5-min Rain = 0
KPD1 110749Z 17006KT 17/08 A3026 RMK A01 T01690084  RH  057%=      5-min Rain = 0
KPD1 110750Z 18006KT 17/08 A3026 RMK A01 T01690084  RH  057%=      5-min Rain = 0
KPD1 110751Z 18006KT 17/08 A3026 RMK A01 T01690084  RH  057%=      5-min Rain = 0
KPD1 110752Z 17005KT 17/08 A3025 RMK A01 T01690084  RH  057%=      5-min Rain = 0
KPD1 110753Z 17006KT 17/08 A3025 RMK A01 T01690084  RH  057%=      5-min Rain = 0
KPD1 110754Z 17007KT 17/08 A3025 RMK A01 T01680084  RH  057%=      5-min Rain = 0
KPD1 110755Z 17007KT 17/08 A3025 RMK A01 T01680084  RH  057%=      5-min Rain = 0
KPD1 110756Z 18006KT 17/08 A3025 RMK A01 T01680084  RH  058%=      5-min Rain = 0
KPD1 110757Z 18005KT 17/08 A3025 RMK A01 T01680084  RH  058%=      5-min Rain = 0
KPD1 110758Z 18005KT 17/08 A3025 RMK A01 T01680084  RH  058%=      5-min Rain = 0
KPD1 110759Z 18005KT 17/08 A3025 RMK A01 T01670084  RH  058%=      5-min Rain = 0
KPD1 110800Z 17005KT 17/08 A3025 RMK A01 T01670084  RH  058%=      5-min Rain = 0
KPD1 110801Z 18005KT 17/08 A3025 RMK A01 T01670084  RH  058%=      5-min Rain = 0
KPD1 110802Z 18006KT 17/08 A3025 RMK A01 T01660083  RH  058%=      5-min Rain = 0
KPD1 110803Z 18006KT 17/08 A3025 RMK A01 T01660083  RH  058%=      5-min Rain = 0
KPD1 110804Z 18006KT 17/08 A3025 RMK A01 T01660083  RH  058%=      5-min Rain = 0
KPD1 110805Z 18006KT 17/08 A3025 RMK A01 T01660083  RH  058%=      5-min Rain = 0
KPD1 110806Z 18005KT 17/08 A3025 RMK A01 T01670083  RH  058%=      5-min Rain = 0
KPD1 110807Z 18005KT 17/08 A3025 RMK A01 T01660082  RH  058%=      5-min Rain = 0
KPD1 110808Z 18006KT 17/08 A3025 RMK A01 T01660083  RH  058%=      5-min Rain = 0
KPD1 110809Z 18005KT 17/08 A3025 RMK A01 T01660082  RH  058%=      5-min Rain = 0
KPD1 110810Z 18005KT 17/08 A3025 RMK A01 T01660082  RH  058%=      5-min Rain = 0
KPD1 110811Z 17006KT 17/08 A3025 RMK A01 T01660082  RH  058%=      5-min Rain = 0
KPD1 110812Z 17005KT 17/08 A3025 RMK A01 T01660082  RH  058%=      5-min Rain = 0
KPD1 110813Z 18005KT 17/08 A3025 RMK A01 T01660082  RH  058%=      5-min Rain = 0
KPD1 110814Z 18005KT 17/08 A3025 RMK A01 T01660082  RH  058%=      5-min Rain = 0
KPD1 110815Z 18005KT 17/08 A3025 RMK A01 T01650082  RH  058%=      5-min Rain = 0
KPD1 110816Z 18005KT 17/08 A3025 RMK A01 T01650082  RH  058%=      5-min Rain = 0
KPD1 110817Z 18005KT 17/08 A3025 RMK A01 T01650082  RH  058%=      5-min Rain = 0
KPD1 110818Z 18005KT 16/08 A3025 RMK A01 T01640082  RH  058%=      5-min Rain = 0
KPD1 110819Z 18005KT 16/08 A3025 RMK A01 T01630081  RH  058%=      5-min Rain = 0
KPD1 110820Z 18004KT 16/08 A3025 RMK A01 T01630080  RH  058%=      5-min Rain = 0
KPD1 110821Z 18004KT 16/08 A3025 RMK A01 T01630080  RH  058%=      5-min Rain = 0
KPD1 110822Z 18004KT 16/08 A3025 RMK A01 T01620080  RH  058%=      5-min Rain = 0
KPD1 110823Z 18004KT 16/08 A3025 RMK A01 T01620080  RH  058%=      5-min Rain = 0
KPD1 110824Z 18004KT 16/08 A3025 RMK A01 T01620080  RH  059%=      5-min Rain = 0
KPD1 110825Z 18004KT 16/08 A3025 RMK A01 T01610080  RH  059%=      5-min Rain = 0
KPD1 110826Z 19004KT 16/08 A3025 RMK A01 T01600080  RH  059%=      5-min Rain = 0
KPD1 110827Z 19004KT 16/08 A3025 RMK A01 T01600080  RH  059%=      5-min Rain = 0
KPD1 110828Z 19004KT 16/08 A3025 RMK A01 T01590080  RH  059%=      5-min Rain = 0
KPD1 110829Z 19004KT 16/08 A3025 RMK A01 T01580080  RH  060%=      5-min Rain = 0
KPD1 110830Z 19004KT 16/08 A3025 RMK A01 T01580080  RH  060%=      5-min Rain = 0
KPD1 110831Z 18004KT 16/08 A3025 RMK A01 T01570080  RH  060%=      5-min Rain = 0
KPD1 110832Z 18004KT 16/08 A3025 RMK A01 T01570080  RH  060%=      5-min Rain = 0
KPD1 110833Z 18004KT 16/08 A3025 RMK A01 T01560080  RH  060%=      5-min Rain = 0
KPD1 110834Z 19003KT 16/08 A3025 RMK A01 T01550079  RH  061%=      5-min Rain = 0
KPD1 110835Z 18004KT 16/08 A3025 RMK A01 T01550080  RH  061%=      5-min Rain = 0
KPD1 110836Z 18003KT 16/08 A3025 RMK A01 T01550080  RH  061%=      5-min Rain = 0
KPD1 110837Z 19003KT 15/08 A3025 RMK A01 T01540080  RH  061%=      5-min Rain = 0
KPD1 110838Z 19003KT 15/08 A3025 RMK A01 T01540080  RH  061%=      5-min Rain = 0
KPD1 110839Z 19003KT 15/08 A3025 RMK A01 T01540080  RH  061%=      5-min Rain = 0
KPD1 110840Z 19003KT 15/08 A3025 RMK A01 T01530080  RH  061%=      5-min Rain = 0
KPD1 110841Z 19003KT 15/08 A3025 RMK A01 T01530079  RH  062%=      5-min Rain = 0
KPD1 110842Z 19003KT 15/08 A3025 RMK A01 T01530080  RH  062%=      5-min Rain = 0
KPD1 110843Z 20003KT 15/08 A3025 RMK A01 T01530080  RH  062%=      5-min Rain = 0
KPD1 110844Z 20004KT 15/08 A3025 RMK A01 T01520079  RH  062%=      5-min Rain = 0
KPD1 110845Z 20004KT 15/08 A3025 RMK A01 T01510079  RH  062%=      5-min Rain = 0
KPD1 110846Z 20004KT 15/08 A3025 RMK A01 T01510079  RH  062%=      5-min Rain = 0
KPD1 110847Z 20004KT 15/08 A3025 RMK A01 T01500079  RH  063%=      5-min Rain = 0
KPD1 110848Z 20004KT 15/08 A3025 RMK A01 T01490079  RH  063%=      5-min Rain = 0
KPD1 110849Z 20004KT 15/08 A3025 RMK A01 T01490079  RH  063%=      5-min Rain = 0
KPD1 110850Z 20004KT 15/08 A3025 RMK A01 T01480079  RH  063%=      5-min Rain = 0
KPD1 110851Z 20004KT 15/08 A3025 RMK A01 T01480079  RH  063%=      5-min Rain = 0
KPD1 110852Z 19004KT 15/08 A3025 RMK A01 T01470079  RH  064%=      5-min Rain = 0
KPD1 110853Z 19004KT 15/08 A3025 RMK A01 T01470079  RH  064%=      5-min Rain = 0
KPD1 110854Z 20004KT 15/08 A3025 RMK A01 T01460079  RH  064%=      5-min Rain = 0
KPD1 110855Z 20004KT 15/08 A3025 RMK A01 T01450079  RH  064%=      5-min Rain = 0
KPD1 110856Z 20004KT 15/08 A3025 RMK A01 T01450079  RH  065%=      5-min Rain = 0
KPD1 110857Z 20004KT 14/08 A3025 RMK A01 T01440079  RH  065%=      5-min Rain = 0
KPD1 110858Z 20004KT 14/08 A3025 RMK A01 T01440079  RH  065%=      5-min Rain = 0
KPD1 110859Z 20005KT 14/08 A3025 RMK A01 T01440079  RH  065%=      5-min Rain = 0
KPD1 110900Z 20004KT 14/08 A3025 RMK A01 T01440079  RH  065%=      5-min Rain = 0
KPD1 110901Z 20004KT 14/08 A3025 RMK A01 T01430079  RH  065%=      5-min Rain = 0
KPD1 110902Z 20005KT 14/08 A3025 RMK A01 T01430079  RH  065%=      5-min Rain = 0
KPD1 110903Z 21005KT 14/08 A3025 RMK A01 T01430079  RH  065%=      5-min Rain = 0
KPD1 110904Z 20005KT 14/08 A3025 RMK A01 T01430079  RH  065%=      5-min Rain = 0
KPD1 110905Z 20005KT 14/08 A3025 RMK A01 T01430079  RH  066%=      5-min Rain = 0
KPD1 110906Z 20004KT 14/08 A3025 RMK A01 T01430080  RH  066%=      5-min Rain = 0
KPD1 110907Z 20004KT 14/08 A3025 RMK A01 T01430080  RH  066%=      5-min Rain = 0
KPD1 110908Z 20004KT 14/08 A3025 RMK A01 T01430080  RH  066%=      5-min Rain = 0
KPD1 110909Z 20004KT 14/08 A3025 RMK A01 T01430080  RH  066%=      5-min Rain = 0
KPD1 110910Z 20004KT 14/08 A3025 RMK A01 T01430080  RH  066%=      5-min Rain = 0
KPD1 110911Z 20003KT 14/08 A3025 RMK A01 T01430080  RH  066%=      5-min Rain = 0
KPD1 110912Z 20003KT 14/08 A3025 RMK A01 T01440080  RH  065%=      5-min Rain = 0
KPD1 110913Z 20003KT 14/08 A3025 RMK A01 T01440080  RH  065%=      5-min Rain = 0
KPD1 110914Z 20003KT 14/08 A3025 RMK A01 T01440080  RH  065%=      5-min Rain = 0
KPD1 110915Z 20003KT 15/08 A3025 RMK A01 T01450080  RH  065%=      5-min Rain = 0
KPD1 110916Z 20004KT 14/08 A3025 RMK A01 T01440080  RH  065%=      5-min Rain = 0
KPD1 110917Z 20004KT 14/08 A3025 RMK A01 T01430080  RH  065%=      5-min Rain = 0
KPD1 110918Z 20003KT 14/08 A3025 RMK A01 T01430080  RH  066%=      5-min Rain = 0
KPD1 110919Z 20003KT 14/08 A3025 RMK A01 T01420080  RH  066%=      5-min Rain = 0
KPD1 110920Z 20003KT 14/08 A3025 RMK A01 T01420079  RH  066%=      5-min Rain = 0
KPD1 110921Z 20003KT 14/08 A3025 RMK A01 T01410079  RH  066%=      5-min Rain = 0
KPD1 110922Z 20003KT 14/08 A3025 RMK A01 T01410079  RH  066%=      5-min Rain = 0
KPD1 110923Z 20003KT 14/08 A3025 RMK A01 T01400079  RH  067%=      5-min Rain = 0
KPD1 110924Z 20003KT 14/08 A3025 RMK A01 T01400079  RH  067%=      5-min Rain = 0
KPD1 110925Z 20003KT 14/08 A3025 RMK A01 T01400080  RH  067%=      5-min Rain = 0
KPD1 110926Z 20003KT 14/08 A3025 RMK A01 T01390079  RH  067%=      5-min Rain = 0
KPD1 110927Z 21003KT 14/08 A3025 RMK A01 T01390079  RH  067%=      5-min Rain = 0
KPD1 110928Z 21003KT 14/08 A3025 RMK A01 T01380079  RH  068%=      5-min Rain = 0
KPD1 110929Z 21004KT 14/08 A3025 RMK A01 T01380079  RH  068%=      5-min Rain = 0
KPD1 110930Z 20004KT 14/08 A3025 RMK A01 T01370079  RH  068%=      5-min Rain = 0
KPD1 110931Z 21004KT 14/08 A3025 RMK A01 T01370079  RH  068%=      5-min Rain = 0
KPD1 110932Z 21003KT 14/08 A3025 RMK A01 T01370079  RH  068%=      5-min Rain = 0
KPD1 110933Z 21004KT 14/08 A3025 RMK A01 T01360079  RH  068%=      5-min Rain = 0
KPD1 110934Z 21004KT 14/08 A3025 RMK A01 T01360079  RH  069%=      5-min Rain = 0
KPD1 110935Z 21004KT 14/08 A3025 RMK A01 T01360079  RH  069%=      5-min Rain = 0
KPD1 110936Z 21004KT 14/08 A3025 RMK A01 T01350079  RH  069%=      5-min Rain = 0
KPD1 110937Z 21004KT 14/08 A3025 RMK A01 T01350079  RH  069%=      5-min Rain = 0
KPD1 110938Z 20004KT 13/08 A3025 RMK A01 T01340079  RH  069%=      5-min Rain = 0
KPD1 110939Z 20004KT 13/08 A3025 RMK A01 T01340079  RH  069%=      5-min Rain = 0
KPD1 110940Z 20004KT 13/08 A3025 RMK A01 T01340079  RH  069%=      5-min Rain = 0
KPD1 110941Z 20004KT 13/08 A3025 RMK A01 T01340079  RH  070%=      5-min Rain = 0
KPD1 110942Z 20004KT 13/08 A3025 RMK A01 T01340079  RH  070%=      5-min Rain = 0
KPD1 110943Z 20004KT 13/08 A3025 RMK A01 T01340079  RH  070%=      5-min Rain = 0
KPD1 110944Z 20004KT 13/08 A3025 RMK A01 T01340079  RH  070%=      5-min Rain = 0
KPD1 110945Z 20005KT 13/08 A3025 RMK A01 T01340079  RH  070%=      5-min Rain = 0
KPD1 110946Z 20005KT 13/08 A3025 RMK A01 T01340079  RH  069%=      5-min Rain = 0
KPD1 110947Z 20005KT 13/08 A3025 RMK A01 T01340079  RH  069%=      5-min Rain = 0
KPD1 110948Z 21005KT 13/08 A3025 RMK A01 T01340079  RH  069%=      5-min Rain = 0
KPD1 110949Z 20004KT 14/08 A3025 RMK A01 T01350080  RH  069%=      5-min Rain = 0
KPD1 110950Z 20005KT 14/08 A3025 RMK A01 T01360080  RH  069%=      5-min Rain = 0
KPD1 110951Z 20005KT 14/08 A3025 RMK A01 T01360080  RH  069%=      5-min Rain = 0
KPD1 110952Z 19004KT 14/08 A3025 RMK A01 T01380081  RH  069%=      5-min Rain = 0
KPD1 110953Z 19004KT 14/08 A3025 RMK A01 T01380081  RH  068%=      5-min Rain = 0
KPD1 110954Z 20004KT 14/08 A3025 RMK A01 T01390081  RH  068%=      5-min Rain = 0
KPD1 110955Z 20004KT 14/08 A3025 RMK A01 T01390080  RH  068%=      5-min Rain = 0
KPD1 110956Z 20004KT 14/08 A3025 RMK A01 T01400081  RH  068%=      5-min Rain = 0
KPD1 110957Z 20004KT 14/08 A3025 RMK A01 T01400081  RH  067%=      5-min Rain = 0
KPD1 110958Z 20004KT 14/08 A3025 RMK A01 T01400081  RH  067%=      5-min Rain = 0
KPD1 110959Z 20004KT 14/08 A3025 RMK A01 T01400081  RH  067%=      5-min Rain = 0
KPD1 111000Z 20004KT 14/08 A3025 RMK A01 T01400080  RH  067%=      5-min Rain = 0
KPD1 111001Z 20004KT 14/08 A3025 RMK A01 T01390080  RH  068%=      5-min Rain = 0
KPD1 111002Z 20004KT 14/08 A3025 RMK A01 T01390080  RH  068%=      5-min Rain = 0
KPD1 111003Z 20004KT 14/08 A3025 RMK A01 T01390080  RH  068%=      5-min Rain = 0
KPD1 111004Z 20005KT 14/08 A3025 RMK A01 T01380080  RH  068%=      5-min Rain = 0
KPD1 111005Z 20005KT 14/08 A3025 RMK A01 T01380080  RH  068%=      5-min Rain = 0
KPD1 111006Z 20005KT 14/08 A3025 RMK A01 T01380080  RH  068%=      5-min Rain = 0
KPD1 111007Z 20005KT 14/08 A3025 RMK A01 T01370080  RH  068%=      5-min Rain = 0
KPD1 111008Z 20005KT 14/08 A3025 RMK A01 T01370080  RH  068%=      5-min Rain = 0
KPD1 111009Z 20005KT 14/08 A3025 RMK A01 T01370080  RH  069%=      5-min Rain = 0
KPD1 111010Z 20005KT 14/08 A3025 RMK A01 T01360080  RH  069%=      5-min Rain = 0
KPD1 111011Z 21005KT 14/08 A3025 RMK A01 T01360080  RH  069%=      5-min Rain = 0
KPD1 111012Z 21005KT 14/08 A3025 RMK A01 T01360081  RH  069%=      5-min Rain = 0
KPD1 111013Z 21005KT 14/08 A3025 RMK A01 T01360080  RH  069%=      5-min Rain = 0
KPD1 111014Z 21005KT 14/08 A3025 RMK A01 T01360081  RH  069%=      5-min Rain = 0
KPD1 111015Z 21004KT 14/08 A3025 RMK A01 T01360081  RH  069%=      5-min Rain = 0
KPD1 111016Z 21004KT 14/08 A3025 RMK A01 T01360080  RH  069%=      5-min Rain = 0
KPD1 111017Z 20004KT 14/08 A3025 RMK A01 T01360081  RH  069%=      5-min Rain = 0
KPD1 111018Z 20004KT 14/08 A3025 RMK A01 T01360081  RH  069%=      5-min Rain = 0
KPD1 111019Z 20004KT 14/08 A3025 RMK A01 T01370081  RH  069%=      5-min Rain = 0
KPD1 111020Z 20004KT 14/08 A3025 RMK A01 T01370081  RH  069%=      5-min Rain = 0
KPD1 111021Z 20004KT 14/08 A3025 RMK A01 T01370080  RH  069%=      5-min Rain = 0
KPD1 111022Z 20004KT 14/08 A3025 RMK A01 T01370080  RH  069%=      5-min Rain = 0
KPD1 111023Z 19004KT 14/08 A3025 RMK A01 T01370081  RH  069%=      5-min Rain = 0
KPD1 111024Z 19004KT 14/08 A3025 RMK A01 T01370081  RH  069%=      5-min Rain = 0
KPD1 111025Z 18004KT 14/08 A3025 RMK A01 T01370081  RH  069%=      5-min Rain = 0
KPD1 111026Z 19004KT 14/08 A3025 RMK A01 T01370081  RH  069%=      5-min Rain = 0
KPD1 111027Z 18004KT 14/08 A3025 RMK A01 T01370081  RH  069%=      5-min Rain = 0
KPD1 111028Z 18004KT 14/08 A3025 RMK A01 T01380081  RH  069%=      5-min Rain = 0
KPD1 111029Z 19004KT 14/08 A3025 RMK A01 T01380081  RH  069%=      5-min Rain = 0
KPD1 111030Z 19004KT 14/08 A3025 RMK A01 T01380082  RH  069%=      5-min Rain = 0
KPD1 111031Z 19004KT 14/08 A3025 RMK A01 T01380082  RH  069%=      5-min Rain = 0
KPD1 111032Z 19004KT 14/08 A3025 RMK A01 T01380082  RH  069%=      5-min Rain = 0
KPD1 111033Z 19004KT 14/08 A3025 RMK A01 T01380082  RH  069%=      5-min Rain = 0
KPD1 111034Z 19004KT 14/08 A3025 RMK A01 T01380082  RH  069%=      5-min Rain = 0
KPD1 111035Z 20004KT 14/08 A3025 RMK A01 T01370082  RH  069%=      5-min Rain = 0
KPD1 111036Z 20004KT 14/08 A3025 RMK A01 T01360082  RH  069%=      5-min Rain = 0
KPD1 111037Z 20004KT 14/08 A3025 RMK A01 T01360082  RH  070%=      5-min Rain = 0
KPD1 111038Z 20004KT 14/08 A3025 RMK A01 T01350082  RH  070%=      5-min Rain = 0
KPD1 111039Z 20004KT 13/08 A3025 RMK A01 T01340082  RH  070%=      5-min Rain = 0
KPD1 111040Z 19003KT 13/08 A3025 RMK A01 T01340082  RH  070%=      5-min Rain = 0
KPD1 111041Z 19003KT 13/08 A3025 RMK A01 T01330081  RH  071%=      5-min Rain = 0
KPD1 111042Z 19003KT 13/08 A3025 RMK A01 T01330081  RH  071%=      5-min Rain = 0
KPD1 111043Z 19003KT 13/08 A3025 RMK A01 T01320081  RH  071%=      5-min Rain = 0
KPD1 111044Z 19003KT 13/08 A3025 RMK A01 T01330082  RH  071%=      5-min Rain = 0
KPD1 111045Z 19003KT 13/08 A3025 RMK A01 T01320082  RH  071%=      5-min Rain = 0
KPD1 111046Z 19003KT 13/08 A3025 RMK A01 T01320081  RH  071%=      5-min Rain = 0
KPD1 111047Z 20003KT 13/08 A3025 RMK A01 T01320082  RH  071%=      5-min Rain = 0
KPD1 111048Z 19003KT 13/08 A3025 RMK A01 T01320081  RH  071%=      5-min Rain = 0
KPD1 111049Z 19003KT 13/08 A3025 RMK A01 T01310081  RH  072%=      5-min Rain = 0
KPD1 111050Z 20003KT 13/08 A3025 RMK A01 T01310082  RH  072%=      5-min Rain = 0
KPD1 111051Z 20003KT 13/08 A3025 RMK A01 T01300081  RH  072%=      5-min Rain = 0
KPD1 111052Z 20003KT 13/08 A3025 RMK A01 T01300081  RH  072%=      5-min Rain = 0
KPD1 111053Z 19003KT 13/08 A3025 RMK A01 T01300081  RH  072%=      5-min Rain = 0
KPD1 111054Z 19003KT 13/08 A3025 RMK A01 T01300081  RH  072%=      5-min Rain = 0
KPD1 111055Z 20003KT 13/08 A3025 RMK A01 T01290081  RH  072%=      5-min Rain = 0
KPD1 111056Z 19003KT 13/08 A3025 RMK A01 T01290081  RH  073%=      5-min Rain = 0
KPD1 111057Z 19003KT 13/08 A3025 RMK A01 T01290081  RH  073%=      5-min Rain = 0
KPD1 111058Z 19003KT 13/08 A3025 RMK A01 T01290081  RH  073%=      5-min Rain = 0
KPD1 111059Z 19003KT 13/08 A3025 RMK A01 T01290081  RH  073%=      5-min Rain = 0
KPD1 111100Z 19003KT 13/08 A3025 RMK A01 T01290081  RH  073%=      5-min Rain = 0
KPD1 111101Z 19003KT 13/08 A3025 RMK A01 T01290081  RH  073%=      5-min Rain = 0
KPD1 111102Z 18003KT 13/08 A3025 RMK A01 T01290081  RH  073%=      5-min Rain = 0
KPD1 111103Z 18003KT 13/08 A3025 RMK A01 T01290081  RH  073%=      5-min Rain = 0
KPD1 111104Z 18004KT 13/08 A3025 RMK A01 T01280081  RH  073%=      5-min Rain = 0
KPD1 111105Z 18003KT 13/08 A3025 RMK A01 T01280081  RH  073%=      5-min Rain = 0
KPD1 111106Z 17003KT 13/08 A3025 RMK A01 T01280081  RH  073%=      5-min Rain = 0
KPD1 111107Z 18003KT 13/08 A3025 RMK A01 T01290081  RH  072%=      5-min Rain = 0
KPD1 111108Z 17004KT 13/08 A3025 RMK A01 T01290081  RH  072%=      5-min Rain = 0
KPD1 111109Z 18004KT 13/08 A3025 RMK A01 T01300081  RH  072%=      5-min Rain = 0
KPD1 111110Z 18003KT 13/08 A3025 RMK A01 T01290080  RH  072%=      5-min Rain = 0
KPD1 111111Z 18004KT 13/08 A3025 RMK A01 T01300080  RH  072%=      5-min Rain = 0
KPD1 111112Z 18004KT 13/08 A3025 RMK A01 T01290080  RH  072%=      5-min Rain = 0
KPD1 111113Z 19004KT 13/08 A3025 RMK A01 T01300080  RH  072%=      5-min Rain = 0
KPD1 111114Z 19004KT 13/08 A3025 RMK A01 T01300080  RH  072%=      5-min Rain = 0
KPD1 111115Z 19004KT 13/08 A3025 RMK A01 T01300080  RH  072%=      5-min Rain = 0
KPD1 111116Z 20005KT 13/08 A3025 RMK A01 T01300080  RH  072%=      5-min Rain = 0
KPD1 111117Z 19005KT 13/08 A3025 RMK A01 T01300080  RH  072%=      5-min Rain = 0
KPD1 111118Z 20004KT 13/08 A3025 RMK A01 T01300080  RH  072%=      5-min Rain = 0
KPD1 111119Z 20004KT 13/08 A3025 RMK A01 T01290080  RH  072%=      5-min Rain = 0
KPD1 111120Z 20005KT 13/08 A3025 RMK A01 T01290080  RH  072%=      5-min Rain = 0
KPD1 111121Z 20004KT 13/08 A3025 RMK A01 T01280080  RH  072%=      5-min Rain = 0
KPD1 111122Z 20004KT 13/08 A3025 RMK A01 T01280080  RH  073%=      5-min Rain = 0
KPD1 111123Z 20004KT 13/08 A3025 RMK A01 T01270079  RH  073%=      5-min Rain = 0
KPD1 111124Z 20004KT 13/08 A3025 RMK A01 T01260079  RH  073%=      5-min Rain = 0
KPD1 111125Z 20004KT 13/08 A3025 RMK A01 T01260080  RH  073%=      5-min Rain = 0
KPD1 111126Z 20004KT 13/08 A3025 RMK A01 T01250080  RH  074%=      5-min Rain = 0
KPD1 111127Z 20004KT 13/08 A3025 RMK A01 T01250080  RH  074%=      5-min Rain = 0
KPD1 111128Z 20003KT 13/08 A3025 RMK A01 T01250080  RH  074%=      5-min Rain = 0
KPD1 111129Z 19003KT 12/08 A3025 RMK A01 T01240079  RH  074%=      5-min Rain = 0
KPD1 111130Z 19003KT 12/08 A3025 RMK A01 T01230079  RH  074%=      5-min Rain = 0
KPD1 111131Z 19003KT 12/08 A3025 RMK A01 T01230079  RH  074%=      5-min Rain = 0
KPD1 111132Z 19003KT 12/08 A3025 RMK A01 T01220079  RH  075%=      5-min Rain = 0
KPD1 111133Z 19003KT 12/08 A3025 RMK A01 T01220079  RH  075%=      5-min Rain = 0
KPD1 111134Z 18003KT 12/08 A3025 RMK A01 T01210079  RH  075%=      5-min Rain = 0
KPD1 111135Z 18003KT 12/08 A3025 RMK A01 T01210079  RH  076%=      5-min Rain = 0
KPD1 111136Z 19002KT 12/08 A3025 RMK A01 T01210080  RH  076%=      5-min Rain = 0
KPD1 111137Z 20002KT 12/08 A3025 RMK A01 T01210080  RH  076%=      5-min Rain = 0
KPD1 111138Z 21002KT 12/08 A3025 RMK A01 T01210080  RH  076%=      5-min Rain = 0
KPD1 111139Z 21002KT 12/08 A3025 RMK A01 T01210080  RH  076%=      5-min Rain = 0
KPD1 111140Z 21002KT 12/08 A3025 RMK A01 T01210080  RH  076%=      5-min Rain = 0
KPD1 111141Z 21002KT 12/08 A3025 RMK A01 T01220081  RH  076%=      5-min Rain = 0
KPD1 111142Z 22002KT 12/08 A3025 RMK A01 T01220080  RH  076%=      5-min Rain = 0
KPD1 111143Z 23003KT 12/08 A3025 RMK A01 T01220080  RH  076%=      5-min Rain = 0
KPD1 111144Z 23003KT 12/08 A3025 RMK A01 T01220080  RH  075%=      5-min Rain = 0
KPD1 111145Z 23003KT 12/08 A3025 RMK A01 T01230081  RH  075%=      5-min Rain = 0
KPD1 111146Z 23003KT 12/08 A3025 RMK A01 T01230080  RH  075%=      5-min Rain = 0
KPD1 111147Z 23003KT 12/08 A3025 RMK A01 T01230080  RH  075%=      5-min Rain = 0
KPD1 111148Z 23004KT 12/08 A3025 RMK A01 T01220080  RH  075%=      5-min Rain = 0
KPD1 111149Z 22004KT 12/08 A3025 RMK A01 T01220080  RH  075%=      5-min Rain = 0
KPD1 111150Z 22004KT 12/08 A3025 RMK A01 T01220080  RH  075%=      5-min Rain = 0
KPD1 111151Z 22004KT 12/08 A3025 RMK A01 T01220080  RH  075%=      5-min Rain = 0
KPD1 111152Z 22004KT 12/08 A3025 RMK A01 T01220079  RH  075%=      5-min Rain = 0
KPD1 111153Z 22004KT 12/08 A3025 RMK A01 T01220079  RH  075%=      5-min Rain = 0
KPD1 111154Z 22004KT 12/08 A3025 RMK A01 T01230080  RH  075%=      5-min Rain = 0
KPD1 111155Z 22005KT 12/08 A3025 RMK A01 T01240080  RH  074%=      5-min Rain = 0
KPD1 111156Z 22005KT 13/08 A3025 RMK A01 T01250080  RH  074%=      5-min Rain = 0
KPD1 111157Z 22005KT 13/08 A3025 RMK A01 T01250080  RH  074%=      5-min Rain = 0
KPD1 111158Z 23004KT 13/08 A3025 RMK A01 T01250080  RH  074%=      5-min Rain = 0
KPD1 111159Z 23004KT 13/08 A3025 RMK A01 T01250080  RH  074%=      5-min Rain = 0
KPD1 111200Z 23004KT 13/08 A3025 RMK A01 T01250079  RH  074%=      5-min Rain = 0
KPD1 111201Z 23004KT 13/08 A3025 RMK A01 T01250080  RH  074%=      5-min Rain = 0
KPD1 111202Z 23005KT 13/08 A3025 RMK A01 T01250080  RH  074%=      5-min Rain = 0
KPD1 111203Z 23004KT 13/08 A3025 RMK A01 T01250079  RH  074%=      5-min Rain = 0
KPD1 111204Z 24004KT 13/08 A3025 RMK A01 T01250080  RH  074%=      5-min Rain = 0
KPD1 111205Z 24004KT 12/08 A3025 RMK A01 T01240079  RH  074%=      5-min Rain = 0
KPD1 111206Z 23004KT 12/08 A3025 RMK A01 T01240079  RH  074%=      5-min Rain = 0
KPD1 111207Z 24004KT 12/08 A3025 RMK A01 T01230079  RH  074%=      5-min Rain = 0
KPD1 111208Z 23004KT 12/08 A3026 RMK A01 T01220079  RH  075%=      5-min Rain = 0
KPD1 111209Z 23004KT 12/08 A3026 RMK A01 T01220079  RH  075%=      5-min Rain = 0
KPD1 111210Z 23004KT 12/08 A3026 RMK A01 T01210079  RH  075%=      5-min Rain = 0
KPD1 111211Z 23004KT 12/08 A3026 RMK A01 T01210079  RH  076%=      5-min Rain = 0
KPD1 111212Z 23004KT 12/08 A3026 RMK A01 T01200079  RH  076%=      5-min Rain = 0
KPD1 111213Z 23003KT 12/08 A3026 RMK A01 T01200079  RH  076%=      5-min Rain = 0
KPD1 111214Z 23004KT 12/08 A3026 RMK A01 T01200079  RH  076%=      5-min Rain = 0
KPD1 111215Z 23004KT 12/08 A3026 RMK A01 T01200079  RH  076%=      5-min Rain = 0
KPD1 111216Z 23004KT 12/08 A3026 RMK A01 T01190079  RH  076%=      5-min Rain = 0
KPD1 111217Z 23004KT 12/08 A3026 RMK A01 T01190079  RH  077%=      5-min Rain = 0
KPD1 111218Z 23004KT 12/08 A3026 RMK A01 T01190079  RH  077%=      5-min Rain = 0
KPD1 111219Z 22003KT 12/08 A3026 RMK A01 T01190079  RH  077%=      5-min Rain = 0
KPD1 111220Z 22004KT 12/08 A3026 RMK A01 T01180079  RH  077%=      5-min Rain = 0
KPD1 111221Z 22004KT 12/08 A3026 RMK A01 T01180079  RH  077%=      5-min Rain = 0
KPD1 111222Z 22004KT 12/08 A3026 RMK A01 T01180079  RH  077%=      5-min Rain = 0
KPD1 111223Z 22004KT 12/08 A3026 RMK A01 T01170078  RH  077%=      5-min Rain = 0
KPD1 111224Z 22004KT 12/08 A3026 RMK A01 T01170079  RH  077%=      5-min Rain = 0
KPD1 111225Z 22004KT 12/08 A3026 RMK A01 T01170079  RH  078%=      5-min Rain = 0
KPD1 111226Z 22003KT 12/08 A3026 RMK A01 T01160079  RH  078%=      5-min Rain = 0
KPD1 111227Z 22003KT 12/08 A3026 RMK A01 T01160079  RH  078%=      5-min Rain = 0
KPD1 111228Z 22003KT 12/08 A3026 RMK A01 T01160079  RH  078%=      5-min Rain = 0
KPD1 111229Z 22003KT 12/08 A3026 RMK A01 T01160079  RH  078%=      5-min Rain = 0
KPD1 111230Z 22002KT 12/08 A3026 RMK A01 T01160079  RH  078%=      5-min Rain = 0
KPD1 111231Z 22002KT 12/08 A3026 RMK A01 T01160079  RH  078%=      5-min Rain = 0
KPD1 111232Z 22002KT 12/08 A3026 RMK A01 T01160080  RH  078%=      5-min Rain = 0
KPD1 111233Z 22002KT 12/08 A3026 RMK A01 T01160079  RH  078%=      5-min Rain = 0
KPD1 111234Z 22002KT 12/08 A3026 RMK A01 T01160079  RH  078%=      5-min Rain = 0
KPD1 111235Z 22002KT 12/08 A3026 RMK A01 T01160079  RH  078%=      5-min Rain = 0
KPD1 111236Z 22002KT 12/08 A3026 RMK A01 T01170080  RH  078%=      5-min Rain = 0
KPD1 111237Z 22002KT 12/08 A3026 RMK A01 T01170080  RH  078%=      5-min Rain = 0
KPD1 111238Z 22002KT 12/08 A3026 RMK A01 T01190080  RH  077%=      5-min Rain = 0
KPD1 111239Z 22002KT 12/08 A3026 RMK A01 T01190080  RH  077%=      5-min Rain = 0
KPD1 111240Z 22002KT 12/08 A3026 RMK A01 T01200081  RH  077%=      5-min Rain = 0
KPD1 111241Z 22003KT 12/08 A3026 RMK A01 T01200080  RH  076%=      5-min Rain = 0
KPD1 111242Z 22003KT 12/08 A3026 RMK A01 T01210080  RH  076%=      5-min Rain = 0
KPD1 111243Z 23003KT 12/08 A3026 RMK A01 T01200079  RH  076%=      5-min Rain = 0
KPD1 111244Z 23004KT 12/08 A3026 RMK A01 T01200080  RH  076%=      5-min Rain = 0
KPD1 111245Z 23004KT 12/08 A3026 RMK A01 T01210080  RH  076%=      5-min Rain = 0
KPD1 111246Z 23004KT 12/08 A3026 RMK A01 T01210080  RH  076%=      5-min Rain = 0
KPD1 111247Z 23004KT 12/08 A3026 RMK A01 T01210080  RH  076%=      5-min Rain = 0
KPD1 111248Z 23004KT 12/08 A3026 RMK A01 T01210080  RH  076%=      5-min Rain = 0
KPD1 111249Z 24004KT 12/08 A3026 RMK A01 T01210080  RH  076%=      5-min Rain = 0
KPD1 111250Z 24004KT 12/08 A3026 RMK A01 T01210080  RH  076%=      5-min Rain = 0
KPD1 111251Z 24005KT 12/08 A3026 RMK A01 T01210080  RH  076%=      5-min Rain = 0
KPD1 111252Z 24004KT 12/08 A3026 RMK A01 T01220080  RH  076%=      5-min Rain = 0
KPD1 111253Z 24005KT 12/08 A3026 RMK A01 T01220080  RH  075%=      5-min Rain = 0
KPD1 111254Z 24004KT 12/08 A3026 RMK A01 T01240081  RH  075%=      5-min Rain = 0
KPD1 111255Z 24004KT 13/08 A3026 RMK A01 T01250081  RH  074%=      5-min Rain = 0
KPD1 111256Z 24004KT 13/08 A3026 RMK A01 T01260081  RH  074%=      5-min Rain = 0
KPD1 111257Z 24004KT 13/08 A3026 RMK A01 T01270081  RH  073%=      5-min Rain = 0
KPD1 111258Z 24004KT 13/08 A3026 RMK A01 T01280081  RH  073%=      5-min Rain = 0
KPD1 111259Z 24003KT 13/08 A3026 RMK A01 T01290081  RH  073%=      5-min Rain = 0
KPD1 111300Z 25004KT 13/08 A3026 RMK A01 T01290081  RH  073%=      5-min Rain = 0
KPD1 111301Z 24004KT 13/08 A3026 RMK A01 T01290081  RH  073%=      5-min Rain = 0
KPD1 111302Z 24004KT 13/08 A3026 RMK A01 T01300082  RH  073%=      5-min Rain = 0
KPD1 111303Z 24003KT 13/08 A3026 RMK A01 T01300081  RH  072%=      5-min Rain = 0
KPD1 111304Z 25004KT 13/08 A3026 RMK A01 T01300082  RH  072%=      5-min Rain = 0
KPD1 111305Z 24004KT 13/08 A3026 RMK A01 T01300082  RH  072%=      5-min Rain = 0
KPD1 111306Z 24004KT 13/08 A3026 RMK A01 T01310082  RH  072%=      5-min Rain = 0
KPD1 111307Z 24005KT 13/08 A3026 RMK A01 T01320083  RH  072%=      5-min Rain = 0
KPD1 111308Z 24004KT 13/08 A3026 RMK A01 T01330083  RH  072%=      5-min Rain = 0
KPD1 111309Z 23005KT 13/08 A3026 RMK A01 T01330083  RH  072%=      5-min Rain = 0
KPD1 111310Z 24004KT 13/08 A3026 RMK A01 T01330083  RH  072%=      5-min Rain = 0
KPD1 111311Z 24004KT 13/08 A3026 RMK A01 T01340084  RH  072%=      5-min Rain = 0
KPD1 111312Z 24004KT 13/08 A3026 RMK A01 T01340084  RH  072%=      5-min Rain = 0
KPD1 111313Z 24003KT 14/08 A3026 RMK A01 T01350084  RH  072%=      5-min Rain = 0
KPD1 111314Z 23003KT 14/09 A3026 RMK A01 T01350085  RH  072%=      5-min Rain = 0
KPD1 111315Z 23004KT 14/09 A3026 RMK A01 T01360085  RH  072%=      5-min Rain = 0
KPD1 111316Z 23003KT 14/09 A3026 RMK A01 T01360086  RH  072%=      5-min Rain = 0
KPD1 111317Z 23003KT 14/09 A3026 RMK A01 T01370087  RH  072%=      5-min Rain = 0
KPD1 111318Z 23003KT 14/09 A3026 RMK A01 T01380087  RH  071%=      5-min Rain = 0
KPD1 111319Z 24002KT 14/09 A3025 RMK A01 T01390088  RH  071%=      5-min Rain = 0
KPD1 111320Z 24003KT 14/09 A3025 RMK A01 T01400088  RH  071%=      5-min Rain = 0
KPD1 111321Z 24003KT 14/09 A3026 RMK A01 T01410088  RH  071%=      5-min Rain = 0
KPD1 111322Z 24003KT 14/09 A3026 RMK A01 T01420088  RH  070%=      5-min Rain = 0
KPD1 111323Z 24003KT 14/09 A3026 RMK A01 T01430089  RH  070%=      5-min Rain = 0
KPD1 111324Z 25002KT 14/09 A3026 RMK A01 T01430088  RH  069%=      5-min Rain = 0
KPD1 111325Z 26002KT 14/09 A3026 RMK A01 T01440088  RH  069%=      5-min Rain = 0
KPD1 111326Z 24002KT 15/09 A3026 RMK A01 T01450089  RH  069%=      5-min Rain = 0
KPD1 111327Z 25002KT 15/09 A3026 RMK A01 T01460089  RH  069%=      5-min Rain = 0
KPD1 111328Z 24002KT 15/09 A3026 RMK A01 T01470089  RH  068%=      5-min Rain = 0
KPD1 111329Z 24002KT 15/09 A3026 RMK A01 T01480090  RH  068%=      5-min Rain = 0
KPD1 111330Z 25002KT 15/09 A3026 RMK A01 T01490090  RH  068%=      5-min Rain = 0
KPD1 111331Z 24003KT 15/09 A3026 RMK A01 T01490090  RH  068%=      5-min Rain = 0
KPD1 111332Z 25002KT 15/09 A3026 RMK A01 T01500090  RH  067%=      5-min Rain = 0
KPD1 111333Z 25003KT 15/09 A3026 RMK A01 T01510091  RH  067%=      5-min Rain = 0
KPD1 111334Z 25003KT 15/09 A3026 RMK A01 T01520091  RH  067%=      5-min Rain = 0
KPD1 111335Z 26002KT 15/09 A3026 RMK A01 T01530092  RH  067%=      5-min Rain = 0
KPD1 111336Z 24003KT 15/09 A3026 RMK A01 T01530091  RH  067%=      5-min Rain = 0
KPD1 111337Z 25003KT 15/09 A3026 RMK A01 T01540091  RH  066%=      5-min Rain = 0
KPD1 111338Z 24005KT 15/09 A3026 RMK A01 T01540091  RH  066%=      5-min Rain = 0
KPD1 111339Z 24003KT 16/09 A3026 RMK A01 T01550089  RH  065%=      5-min Rain = 0
KPD1 111340Z 24001KT 16/09 A3026 RMK A01 T01570092  RH  065%=      5-min Rain = 0
KPD1 111341Z 26002KT 16/09 A3026 RMK A01 T01580094  RH  066%=      5-min Rain = 0
KPD1 111342Z 26002KT 16/09 A3026 RMK A01 T01590094  RH  066%=      5-min Rain = 0
KPD1 111343Z 25002KT 16/10 A3026 RMK A01 T01590095  RH  065%=      5-min Rain = 0
KPD1 111344Z 24002KT 16/09 A3026 RMK A01 T01600094  RH  065%=      5-min Rain = 0
KPD1 111345Z 24002KT 16/09 A3026 RMK A01 T01600092  RH  064%=      5-min Rain = 0
KPD1 111346Z 24002KT 16/09 A3026 RMK A01 T01600094  RH  065%=      5-min Rain = 0
KPD1 111347Z 25002KT 16/09 A3026 RMK A01 T01600093  RH  064%=      5-min Rain = 0
KPD1 111348Z 24002KT 16/09 A3026 RMK A01 T01600092  RH  064%=      5-min Rain = 0
KPD1 111349Z 24002KT 16/09 A3026 RMK A01 T01610093  RH  064%=      5-min Rain = 0
KPD1 111350Z 23001KT 16/09 A3026 RMK A01 T01610093  RH  064%=      5-min Rain = 0
KPD1 111351Z 23001KT 16/10 A3026 RMK A01 T01620095  RH  065%=      5-min Rain = 0
KPD1 111352Z 24001KT 16/10 A3026 RMK A01 T01630095  RH  064%=      5-min Rain = 0
KPD1 111353Z 24001KT 16/10 A3026 RMK A01 T01640096  RH  064%=      5-min Rain = 0
KPD1 111354Z 24002KT 17/10 A3026 RMK A01 T01650098  RH  064%=      5-min Rain = 0
KPD1 111355Z 20001KT 17/10 A3026 RMK A01 T01670099  RH  064%=      5-min Rain = 0
KPD1 111356Z 20002KT 17/10 A3026 RMK A01 T01680098  RH  063%=      5-min Rain = 0
KPD1 111357Z 20000KT 17/10 A3026 RMK A01 T01700101  RH  064%=      5-min Rain = 0
KPD1 111358Z 22001KT 17/10 A3026 RMK A01 T01720102  RH  063%=      5-min Rain = 0
KPD1 111359Z 00000KT 17/10 A3026 RMK A01 T01740101  RH  062%=      5-min Rain = 0
KPD1 111400Z 22002KT 18/10 A3026 RMK A01 T01750099  RH  061%=      5-min Rain = 0
KPD1 111401Z 24002KT 18/10 A3026 RMK A01 T01760098  RH  060%=      5-min Rain = 0
KPD1 111402Z 23003KT 18/10 A3026 RMK A01 T01770099  RH  060%=      5-min Rain = 0
KPD1 111403Z 23004KT 18/10 A3026 RMK A01 T01780099  RH  060%=      5-min Rain = 0
KPD1 111404Z 24003KT 18/10 A3026 RMK A01 T01780098  RH  059%=      5-min Rain = 0
KPD1 111405Z 25001KT 18/10 A3026 RMK A01 T01790099  RH  059%=      5-min Rain = 0
KPD1 111406Z 25001KT 18/10 A3026 RMK A01 T01800099  RH  059%=      5-min Rain = 0
KPD1 111407Z 24003KT 18/10 A3026 RMK A01 T01810098  RH  058%=      5-min Rain = 0
KPD1 111408Z 24001KT 18/10 A3026 RMK A01 T01810099  RH  059%=      5-min Rain = 0
KPD1 111409Z 24001KT 18/10 A3026 RMK A01 T01820101  RH  059%=      5-min Rain = 0
KPD1 111410Z 27001KT 18/10 A3026 RMK A01 T01830102  RH  059%=      5-min Rain = 0
KPD1 111411Z 27002KT 18/10 A3026 RMK A01 T01840103  RH  059%=      5-min Rain = 0
KPD1 111412Z 27002KT 19/10 A3026 RMK A01 T01850104  RH  059%=      5-min Rain = 0
KPD1 111413Z 22001KT 19/10 A3026 RMK A01 T01860104  RH  059%=      5-min Rain = 0
KPD1 111414Z 26002KT 19/10 A3026 RMK A01 T01870103  RH  058%=      5-min Rain = 0
KPD1 111415Z 25002KT 19/10 A3026 RMK A01 T01880102  RH  058%=      5-min Rain = 0
KPD1 111416Z 22003KT 19/10 A3026 RMK A01 T01880103  RH  058%=      5-min Rain = 0
KPD1 111417Z 22003KT 19/10 A3026 RMK A01 T01890104  RH  058%=      5-min Rain = 0
KPD1 111418Z 23004KT 19/11 A3026 RMK A01 T01900105  RH  058%=      5-min Rain = 0
KPD1 111419Z 23003KT 19/11 A3026 RMK A01 T01910105  RH  058%=      5-min Rain = 0
KPD1 111420Z 23003KT 19/10 A3026 RMK A01 T01910103  RH  057%=      5-min Rain = 0
KPD1 111421Z 24002KT 19/10 A3026 RMK A01 T01910104  RH  057%=      5-min Rain = 0
KPD1 111422Z 23003KT 19/10 A3026 RMK A01 T01910104  RH  057%=      5-min Rain = 0
KPD1 111423Z 23003KT 19/10 A3026 RMK A01 T01920102  RH  056%=      5-min Rain = 0
KPD1 111424Z 22003KT 19/10 A3026 RMK A01 T01920103  RH  056%=      5-min Rain = 0
KPD1 111425Z 23002KT 19/10 A3026 RMK A01 T01940104  RH  056%=      5-min Rain = 0
KPD1 111426Z 23003KT 19/10 A3026 RMK A01 T01940104  RH  056%=      5-min Rain = 0
KPD1 111427Z 22002KT 20/10 A3026 RMK A01 T01960104  RH  055%=      5-min Rain = 0
KPD1 111428Z 22003KT 20/10 A3026 RMK A01 T01960104  RH  055%=      5-min Rain = 0
KPD1 111429Z 25002KT 20/11 A3026 RMK A01 T01970105  RH  055%=      5-min Rain = 0
KPD1 111430Z 19003KT 20/11 A3026 RMK A01 T01980105  RH  055%=      5-min Rain = 0
KPD1 111431Z 20002KT 20/11 A3026 RMK A01 T01990105  RH  055%=      5-min Rain = 0
KPD1 111432Z 25004KT 20/10 A3026 RMK A01 T02000103  RH  054%=      5-min Rain = 0
KPD1 111433Z 23003KT 20/10 A3026 RMK A01 T02000101  RH  053%=      5-min Rain = 0
KPD1 111434Z 22003KT 20/11 A3026 RMK A01 T02000105  RH  054%=      5-min Rain = 0
KPD1 111435Z 22003KT 20/10 A3026 RMK A01 T02010100  RH  052%=      5-min Rain = 0
KPD1 111436Z 22004KT 20/10 A3026 RMK A01 T02020104  RH  053%=      5-min Rain = 0
KPD1 111437Z 23002KT 20/10 A3026 RMK A01 T02020104  RH  053%=      5-min Rain = 0
KPD1 111438Z 22004KT 20/10 A3026 RMK A01 T02030104  RH  053%=      5-min Rain = 0
KPD1 111439Z 22002KT 20/10 A3026 RMK A01 T02030104  RH  053%=      5-min Rain = 0
KPD1 111440Z 22005KT 20/10 A3026 RMK A01 T02030104  RH  053%=      5-min Rain = 0
KPD1 111441Z 23005KT 20/10 A3026 RMK A01 T02040104  RH  053%=      5-min Rain = 0
KPD1 111442Z 23005KT 21/10 A3026 RMK A01 T02050102  RH  052%=      5-min Rain = 0
KPD1 111443Z 25004KT 21/10 A3026 RMK A01 T02050104  RH  052%=      5-min Rain = 0
KPD1 111444Z 22005KT 21/11 A3026 RMK A01 T02060105  RH  052%=      5-min Rain = 0
KPD1 111445Z 24004KT 21/10 A3026 RMK A01 T02070103  RH  051%=      5-min Rain = 0
KPD1 111446Z 24005KT 21/10 A3026 RMK A01 T02070102  RH  051%=      5-min Rain = 0
KPD1 111447Z 24004KT 21/10 A3026 RMK A01 T02070102  RH  051%=      5-min Rain = 0
KPD1 111448Z 23005KT 21/11 A3026 RMK A01 T02080106  RH  052%=      5-min Rain = 0
KPD1 111449Z 23007KT 21/10 A3026 RMK A01 T02090104  RH  051%=      5-min Rain = 0
KPD1 111450Z 23005KT 21/10 A3026 RMK A01 T02100103  RH  051%=      5-min Rain = 0
KPD1 111451Z 23003KT 21/11 A3026 RMK A01 T02100109  RH  052%=      5-min Rain = 0
KPD1 111452Z 23004KT 21/11 A3026 RMK A01 T02110105  RH  051%=      5-min Rain = 0
KPD1 111453Z 23004KT 21/11 A3026 RMK A01 T02120105  RH  050%=      5-min Rain = 0
KPD1 111454Z 24005KT 21/11 A3026 RMK A01 T02130107  RH  051%=      5-min Rain = 0
KPD1 111455Z 24005KT 21/11 A3026 RMK A01 T02140105  RH  050%=      5-min Rain = 0
KPD1 111456Z 22005KT 22/11 A3026 RMK A01 T02150107  RH  050%=      5-min Rain = 0
KPD1 111457Z 23008KT 22/11 A3026 RMK A01 T02170107  RH  049%=      5-min Rain = 0
KPD1 111458Z 23007KT 22/11 A3026 RMK A01 T02170106  RH  049%=      5-min Rain = 0
KPD1 111459Z 21005KT 22/11 A3026 RMK A01 T02180108  RH  049%=      5-min Rain = 0
KPD1 111500Z 22006KT 22/11 A3026 RMK A01 T02190107  RH  049%=      5-min Rain = 0
KPD1 111501Z 23004KT 22/11 A3026 RMK A01 T02190106  RH  048%=      5-min Rain = 0
KPD1 111502Z 23004KT 22/11 A3026 RMK A01 T02190108  RH  049%=      5-min Rain = 0
KPD1 111503Z 23004KT 22/11 A3026 RMK A01 T02200110  RH  050%=      5-min Rain = 0
KPD1 111504Z 23005KT 22/11 A3026 RMK A01 T02220109  RH  049%=      5-min Rain = 0
KPD1 111505Z 22004KT 22/11 A3026 RMK A01 T02220107  RH  048%=      5-min Rain = 0
KPD1 111506Z 22004KT 22/11 A3026 RMK A01 T02220110  RH  049%=      5-min Rain = 0
KPD1 111507Z 22005KT 22/11 A3026 RMK A01 T02240112  RH  049%=      5-min Rain = 0
KPD1 111508Z 22005KT 23/11 A3026 RMK A01 T02260111  RH  048%=      5-min Rain = 0
KPD1 111509Z 24005KT 23/11 A3026 RMK A01 T02260110  RH  048%=      5-min Rain = 0
KPD1 111510Z 24006KT 23/11 A3026 RMK A01 T02270111  RH  048%=      5-min Rain = 0
KPD1 111511Z 23004KT 23/11 A3026 RMK A01 T02280112  RH  048%=      5-min Rain = 0
KPD1 111512Z 25008G14KT 23/11 A3026 RMK A01 T02290111  RH  047%=      5-min Rain = 0
KPD1 111513Z 25009KT 23/11 A3026 RMK A01 T02300107  RH  046%=      5-min Rain = 0
KPD1 111514Z 24009KT 23/11 A3026 RMK A01 T02290107  RH  046%=      5-min Rain = 0
KPD1 111515Z 24008KT 23/11 A3026 RMK A01 T02290107  RH  046%=      5-min Rain = 0
KPD1 111516Z 22006KT 23/11 A3026 RMK A01 T02290106  RH  046%=      5-min Rain = 0
KPD1 111517Z 25005KT 23/11 A3026 RMK A01 T02290108  RH  046%=      5-min Rain = 0
KPD1 111518Z 24007KT 23/11 A3026 RMK A01 T02300109  RH  046%=      5-min Rain = 0
KPD1 111519Z 24007KT 23/11 A3026 RMK A01 T02330110  RH  046%=      5-min Rain = 0
KPD1 111520Z 25008KT 23/11 A3026 RMK A01 T02340109  RH  045%=      5-min Rain = 0
KPD1 111521Z 25010KT 24/11 A3026 RMK A01 T02350106  RH  044%=      5-min Rain = 0
KPD1 111522Z 24009KT 23/11 A3026 RMK A01 T02340105  RH  044%=      5-min Rain = 0
KPD1 111523Z 25009KT 23/11 A3026 RMK A01 T02340106  RH  044%=      5-min Rain = 0
KPD1 111524Z 25010KT 23/11 A3026 RMK A01 T02340106  RH  044%=      5-min Rain = 0
KPD1 111525Z 25010KT 23/10 A3026 RMK A01 T02340104  RH  044%=      5-min Rain = 0
KPD1 111526Z 24008KT 23/11 A3026 RMK A01 T02340105  RH  044%=      5-min Rain = 0
KPD1 111527Z 23009KT 23/11 A3026 RMK A01 T02340105  RH  044%=      5-min Rain = 0
KPD1 111528Z 23010KT 24/11 A3026 RMK A01 T02350105  RH  044%=      5-min Rain = 0
KPD1 111529Z 23009KT 24/11 A3026 RMK A01 T02350106  RH  044%=      5-min Rain = 0
KPD1 111530Z 24008KT 24/11 A3026 RMK A01 T02360106  RH  044%=      5-min Rain = 0
KPD1 111531Z 23009KT 24/11 A3026 RMK A01 T02360105  RH  043%=      5-min Rain = 0
KPD1 111532Z 22010KT 24/11 A3026 RMK A01 T02360105  RH  044%=      5-min Rain = 0
KPD1 111533Z 23006KT 24/11 A3026 RMK A01 T02360107  RH  044%=      5-min Rain = 0
KPD1 111534Z 23006KT 24/11 A3026 RMK A01 T02380109  RH  044%=      5-min Rain = 0
KPD1 111535Z 23007KT 24/11 A3026 RMK A01 T02390108  RH  044%=      5-min Rain = 0
KPD1 111536Z 23004KT 24/11 A3026 RMK A01 T02400111  RH  044%=      5-min Rain = 0
KPD1 111537Z 23004KT 24/11 A3026 RMK A01 T02410110  RH  044%=      5-min Rain = 0
KPD1 111538Z 22006KT 24/11 A3026 RMK A01 T02420112  RH  044%=      5-min Rain = 0
KPD1 111539Z 26004KT 24/11 A3026 RMK A01 T02440114  RH  044%=      5-min Rain = 0
KPD1 111540Z 26005KT 25/12 A3026 RMK A01 T02460116  RH  044%=      5-min Rain = 0
KPD1 111541Z 25007KT 25/11 A3026 RMK A01 T02460113  RH  043%=      5-min Rain = 0
KPD1 111542Z 28006KT 25/11 A3026 RMK A01 T02450113  RH  044%=      5-min Rain = 0
KPD1 111543Z 28006KT 24/11 A3026 RMK A01 T02440113  RH  044%=      5-min Rain = 0
KPD1 111544Z 27006KT 24/11 A3026 RMK A01 T02440114  RH  044%=      5-min Rain = 0
KPD1 111545Z 25004KT 24/11 A3026 RMK A01 T02440114  RH  044%=      5-min Rain = 0
KPD1 111546Z 24008KT 25/11 A3026 RMK A01 T02450112  RH  043%=      5-min Rain = 0
KPD1 111547Z 24004KT 25/11 A3026 RMK A01 T02450112  RH  043%=      5-min Rain = 0
KPD1 111548Z 26005KT 24/11 A3026 RMK A01 T02440113  RH  044%=      5-min Rain = 0
KPD1 111549Z 25004KT 25/11 A3026 RMK A01 T02450111  RH  043%=      5-min Rain = 0
KPD1 111550Z 26005KT 24/11 A3026 RMK A01 T02430111  RH  043%=      5-min Rain = 0
KPD1 111551Z 25005KT 24/12 A3026 RMK A01 T02430117  RH  045%=      5-min Rain = 0
KPD1 111552Z 24006KT 25/12 A3026 RMK A01 T02470116  RH  044%=      5-min Rain = 0
KPD1 111553Z 25005KT 25/11 A3026 RMK A01 T02480112  RH  042%=      5-min Rain = 0
KPD1 111554Z 26005KT 25/11 A3026 RMK A01 T02470114  RH  043%=      5-min Rain = 0
KPD1 111555Z 28007KT 25/12 A3026 RMK A01 T02470116  RH  044%=      5-min Rain = 0
KPD1 111556Z 28007KT 25/12 A3026 RMK A01 T02480116  RH  044%=      5-min Rain = 0
KPD1 111557Z 28006KT 25/11 A3026 RMK A01 T02480114  RH  043%=      5-min Rain = 0
KPD1 111558Z 27007KT 25/12 A3026 RMK A01 T02480118  RH  044%=      5-min Rain = 0
KPD1 111559Z 27007KT 25/12 A3026 RMK A01 T02490116  RH  043%=      5-min Rain = 0
KPD1 111600Z 27006KT 25/12 A3026 RMK A01 T02500116  RH  043%=      5-min Rain = 0
KPD1 111601Z 28007KT 25/12 A3026 RMK A01 T02500115  RH  043%=      5-min Rain = 0
KPD1 111602Z 27007KT 25/11 A3025 RMK A01 T02500114  RH  043%=      5-min Rain = 0
KPD1 111603Z 26005KT 25/11 A3025 RMK A01 T02500114  RH  043%=      5-min Rain = 0
KPD1 111604Z 27009KT 25/11 A3025 RMK A01 T02500112  RH  042%=      5-min Rain = 0
KPD1 111605Z 26007KT 25/11 A3025 RMK A01 T02510109  RH  041%=      5-min Rain = 0
KPD1 111606Z 26008KT 25/11 A3025 RMK A01 T02510110  RH  041%=      5-min Rain = 0
KPD1 111607Z 26007KT 25/11 A3025 RMK A01 T02520110  RH  041%=      5-min Rain = 0
KPD1 111608Z 26006KT 25/11 A3025 RMK A01 T02520110  RH  041%=      5-min Rain = 0
KPD1 111609Z 24008KT 25/11 A3025 RMK A01 T02520110  RH  041%=      5-min Rain = 0
KPD1 111610Z 24006KT 25/11 A3025 RMK A01 T02520109  RH  041%=      5-min Rain = 0
KPD1 111611Z 24011KT 25/11 A3025 RMK A01 T02520111  RH  041%=      5-min Rain = 0
KPD1 111612Z 25010G15KT 25/11 A3025 RMK A01 T02530106  RH  040%=      5-min Rain = 0
KPD1 111613Z 25008KT 25/11 A3025 RMK A01 T02510109  RH  041%=      5-min Rain = 0
KPD1 111614Z 26007KT 25/11 A3025 RMK A01 T02530111  RH  041%=      5-min Rain = 0
KPD1 111615Z 25005KT 26/11 A3025 RMK A01 T02550111  RH  041%=      5-min Rain = 0
KPD1 111616Z 23008KT 26/11 A3025 RMK A01 T02560113  RH  041%=      5-min Rain = 0
KPD1 111617Z 24007KT 26/11 A3025 RMK A01 T02580112  RH  040%=      5-min Rain = 0
KPD1 111618Z 25007KT 26/11 A3025 RMK A01 T02580112  RH  040%=      5-min Rain = 0
KPD1 111619Z 24005KT 26/12 A3025 RMK A01 T02580115  RH  041%=      5-min Rain = 0
KPD1 111620Z 23005KT 26/11 A3025 RMK A01 T02580113  RH  040%=      5-min Rain = 0
KPD1 111621Z 26007G13KT 26/12 A3025 RMK A01 T02580116  RH  041%=      5-min Rain = 0
KPD1 111622Z 27008KT 26/11 A3025 RMK A01 T02600112  RH  040%=      5-min Rain = 0
KPD1 111623Z 25006KT 26/11 A3025 RMK A01 T02590109  RH  039%=      5-min Rain = 0
KPD1 111624Z 26007KT 26/11 A3025 RMK A01 T02580110  RH  039%=      5-min Rain = 0
KPD1 111625Z 27006KT 26/11 A3025 RMK A01 T02580111  RH  040%=      5-min Rain = 0
KPD1 111626Z 24004KT 26/11 A3025 RMK A01 T02580113  RH  040%=      5-min Rain = 0
KPD1 111627Z 25008KT 26/12 A3025 RMK A01 T02610115  RH  040%=      5-min Rain = 0
KPD1 111628Z 28009KT 26/11 A3025 RMK A01 T02620114  RH  040%=      5-min Rain = 0
KPD1 111629Z 27007KT 26/11 A3025 RMK A01 T02620114  RH  040%=      5-min Rain = 0
KPD1 111630Z 24007KT 26/11 A3025 RMK A01 T02620112  RH  039%=      5-min Rain = 0
KPD1 111631Z 24007G12KT 26/11 A3025 RMK A01 T02620113  RH  039%=      5-min Rain = 0
KPD1 111632Z 23007KT 26/11 A3025 RMK A01 T02630113  RH  039%=      5-min Rain = 0
KPD1 111633Z 24006KT 26/11 A3025 RMK A01 T02640111  RH  038%=      5-min Rain = 0
KPD1 111634Z 26007KT 26/11 A3025 RMK A01 T02640112  RH  039%=      5-min Rain = 0
KPD1 111635Z 26006KT 26/11 A3025 RMK A01 T02630112  RH  039%=      5-min Rain = 0
KPD1 111636Z 24006KT 26/11 A3025 RMK A01 T02630113  RH  039%=      5-min Rain = 0
KPD1 111637Z 27008KT 26/11 A3025 RMK A01 T02630113  RH  039%=      5-min Rain = 0
KPD1 111638Z 26008KT 26/11 A3025 RMK A01 T02640111  RH  038%=      5-min Rain = 0
KPD1 111639Z 27009KT 27/11 A3025 RMK A01 T02650109  RH  038%=      5-min Rain = 0
KPD1 111640Z 28005KT 26/11 A3025 RMK A01 T02640112  RH  039%=      5-min Rain = 0
KPD1 111641Z 27009KT 27/11 A3025 RMK A01 T02660114  RH  039%=      5-min Rain = 0
KPD1 111642Z 28010KT 27/11 A3025 RMK A01 T02670111  RH  038%=      5-min Rain = 0
KPD1 111643Z 27007KT 27/11 A3025 RMK A01 T02660113  RH  038%=      5-min Rain = 0
KPD1 111644Z 28007KT 27/11 A3024 RMK A01 T02660114  RH  039%=      5-min Rain = 0
KPD1 111645Z 29008KT 27/11 A3024 RMK A01 T02660112  RH  038%=      5-min Rain = 0
KPD1 111646Z 28010KT 27/11 A3024 RMK A01 T02660114  RH  039%=      5-min Rain = 0
KPD1 111647Z 27009KT 27/11 A3024 RMK A01 T02660114  RH  039%=      5-min Rain = 0
KPD1 111648Z 27007KT 27/12 A3024 RMK A01 T02660115  RH  039%=      5-min Rain = 0
KPD1 111649Z 24007KT 27/11 A3024 RMK A01 T02680113  RH  038%=      5-min Rain = 0
KPD1 111650Z 24006KT 27/11 A3024 RMK A01 T02680113  RH  038%=      5-min Rain = 0
KPD1 111651Z 25007G12KT 27/12 A3024 RMK A01 T02690115  RH  038%=      5-min Rain = 0
KPD1 111652Z 26010KT 27/11 A3024 RMK A01 T02700113  RH  038%=      5-min Rain = 0
KPD1 111653Z 26008KT 27/11 A3024 RMK A01 T02700112  RH  037%=      5-min Rain = 0
KPD1 111654Z 26007KT 27/11 A3024 RMK A01 T02700112  RH  037%=      5-min Rain = 0
KPD1 111655Z 28007KT 27/11 A3024 RMK A01 T02690114  RH  038%=      5-min Rain = 0
KPD1 111656Z 29007KT 27/11 A3024 RMK A01 T02680113  RH  038%=      5-min Rain = 0
KPD1 111657Z 27006KT 27/11 A3024 RMK A01 T02670113  RH  038%=      5-min Rain = 0
KPD1 111658Z 23006KT 27/12 A3024 RMK A01 T02680115  RH  038%=      5-min Rain = 0
KPD1 111659Z 25009KT 27/11 A3024 RMK A01 T02700112  RH  037%=      5-min Rain = 0
KPD1 111700Z 26008KT 27/11 A3024 RMK A01 T02720111  RH  037%=      5-min Rain = 0
KPD1 111701Z 28006KT 27/11 A3024 RMK A01 T02720113  RH  037%=      5-min Rain = 0
KPD1 111702Z 26008KT 27/11 A3024 RMK A01 T02730113  RH  037%=      5-min Rain = 0
KPD1 111703Z 26008KT 27/11 A3024 RMK A01 T02710109  RH  036%=      5-min Rain = 0
KPD1 111704Z 26007KT 27/11 A3024 RMK A01 T02690113  RH  038%=      5-min Rain = 0
KPD1 111705Z 24006KT 27/11 A3024 RMK A01 T02700112  RH  037%=      5-min Rain = 0
KPD1 111706Z 25008KT 27/11 A3024 RMK A01 T02700112  RH  037%=      5-min Rain = 0
KPD1 111707Z 24009KT 27/11 A3024 RMK A01 T02690111  RH  037%=      5-min Rain = 0
KPD1 111708Z 26008KT 27/11 A3024 RMK A01 T02690114  RH  038%=      5-min Rain = 0
KPD1 111709Z 27009KT 27/11 A3024 RMK A01 T02710110  RH  037%=      5-min Rain = 0
KPD1 111710Z 28008KT 27/11 A3024 RMK A01 T02700109  RH  036%=      5-min Rain = 0
KPD1 111711Z 28006KT 27/11 A3024 RMK A01 T02690109  RH  037%=      5-min Rain = 0
KPD1 111712Z 28005KT 27/11 A3024 RMK A01 T02690112  RH  037%=      5-min Rain = 0
KPD1 111713Z 27003KT 27/11 A3024 RMK A01 T02710114  RH  038%=      5-min Rain = 0
KPD1 111714Z 31006KT 27/12 A3024 RMK A01 T02730117  RH  038%=      5-min Rain = 0
KPD1 111715Z 29006KT 27/11 A3024 RMK A01 T02740112  RH  036%=      5-min Rain = 0
KPD1 111716Z 25008KT 27/12 A3024 RMK A01 T02730116  RH  037%=      5-min Rain = 0
KPD1 111717Z 26009KT 28/12 A3024 RMK A01 T02750117  RH  037%=      5-min Rain = 0
KPD1 111718Z 26007KT 28/12 A3024 RMK A01 T02770115  RH  036%=      5-min Rain = 0
KPD1 111719Z 24005KT 28/11 A3024 RMK A01 T02750108  RH  035%=      5-min Rain = 0
KPD1 111720Z 27004KT 27/11 A3024 RMK A01 T02730110  RH  036%=      5-min Rain = 0
KPD1 111721Z 29005KT 27/11 A3024 RMK A01 T02730113  RH  037%=      5-min Rain = 0
KPD1 111722Z 29006KT 28/11 A3024 RMK A01 T02750113  RH  037%=      5-min Rain = 0
KPD1 111723Z 28006KT 28/11 A3024 RMK A01 T02770113  RH  036%=      5-min Rain = 0
KPD1 111724Z 27005KT 28/11 A3024 RMK A01 T02770114  RH  036%=      5-min Rain = 0
KPD1 111725Z 29004KT 28/12 A3024 RMK A01 T02780116  RH  036%=      5-min Rain = 0
KPD1 111726Z 29003KT 28/12 A3024 RMK A01 T02790115  RH  036%=      5-min Rain = 0
KPD1 111727Z 28006KT 28/12 A3024 RMK A01 T02820117  RH  036%=      5-min Rain = 0
KPD1 111728Z 29005KT 28/11 A3024 RMK A01 T02830114  RH  035%=      5-min Rain = 0
KPD1 111729Z 31006KT 28/11 A3024 RMK A01 T02840113  RH  035%=      5-min Rain = 0
KPD1 111730Z 30007KT 28/11 A3024 RMK A01 T02820114  RH  035%=      5-min Rain = 0
KPD1 111731Z 28008KT 28/11 A3024 RMK A01 T02810113  RH  035%=      5-min Rain = 0
KPD1 111732Z 27002KT 28/11 A3024 RMK A01 T02800113  RH  035%=      5-min Rain = 0
KPD1 111733Z 29001KT 28/11 A3024 RMK A01 T02800114  RH  036%=      5-min Rain = 0
KPD1 111734Z 26006G13KT 28/11 A3024 RMK A01 T02800114  RH  036%=      5-min Rain = 0
KPD1 111735Z 27008KT 28/12 A3024 RMK A01 T02800116  RH  036%=      5-min Rain = 0
KPD1 111736Z 26005KT 28/12 A3024 RMK A01 T02810117  RH  036%=      5-min Rain = 0
KPD1 111737Z 30007KT 28/12 A3024 RMK A01 T02830116  RH  036%=      5-min Rain = 0
KPD1 111738Z 32006KT 28/11 A3024 RMK A01 T02810109  RH  034%=      5-min Rain = 0
KPD1 111739Z 28004KT 28/11 A3024 RMK A01 T02770108  RH  035%=      5-min Rain = 0
KPD1 111740Z 26004KT 28/11 A3024 RMK A01 T02760112  RH  036%=      5-min Rain = 0
KPD1 111741Z 27003G8KT 28/11 A3024 RMK A01 T02770109  RH  035%=      5-min Rain = 0
KPD1 111742Z 29006KT 28/11 A3024 RMK A01 T02770112  RH  036%=      5-min Rain = 0
KPD1 111743Z 25004KT 28/11 A3023 RMK A01 T02780112  RH  036%=      5-min Rain = 0
KPD1 111744Z 24008KT 28/11 A3023 RMK A01 T02790110  RH  035%=      5-min Rain = 0
KPD1 111745Z 26004KT 28/11 A3023 RMK A01 T02770108  RH  035%=      5-min Rain = 0
KPD1 111746Z 28006KT 28/11 A3023 RMK A01 T02760112  RH  036%=      5-min Rain = 0
KPD1 111747Z 26002KT 28/11 A3023 RMK A01 T02770109  RH  035%=      5-min Rain = 0
KPD1 111748Z 24005KT 28/11 A3023 RMK A01 T02770113  RH  036%=      5-min Rain = 0
KPD1 111749Z 25008KT 28/11 A3023 RMK A01 T02790112  RH  035%=      5-min Rain = 0
KPD1 111750Z 25007KT 28/11 A3023 RMK A01 T02800114  RH  036%=      5-min Rain = 0
KPD1 111751Z 26004KT 28/11 A3023 RMK A01 T02830114  RH  035%=      5-min Rain = 0
KPD1 111752Z 27005KT 28/11 A3023 RMK A01 T02820112  RH  035%=      5-min Rain = 0
KPD1 111753Z 27003KT 28/11 A3023 RMK A01 T02810113  RH  035%=      5-min Rain = 0
KPD1 111754Z 25004KT 28/11 A3023 RMK A01 T02810113  RH  035%=      5-min Rain = 0
KPD1 111755Z 28002KT 28/11 A3023 RMK A01 T02820111  RH  034%=      5-min Rain = 0
KPD1 111756Z 31004KT 28/11 A3023 RMK A01 T02820114  RH  035%=      5-min Rain = 0
KPD1 111757Z 31004KT 28/11 A3023 RMK A01 T02820113  RH  035%=      5-min Rain = 0
KPD1 111758Z 28002KT 28/11 A3023 RMK A01 T02820114  RH  035%=      5-min Rain = 0
KPD1 111759Z 27004KT 28/12 A3023 RMK A01 T02840115  RH  035%=      5-min Rain = 0
KPD1 111800Z 28003KT 29/11 A3023 RMK A01 T02850113  RH  034%=      5-min Rain = 0
KPD1 111801Z 29002KT 29/12 A3023 RMK A01 T02850118  RH  035%=      5-min Rain = 0
KPD1 111802Z 27005KT 29/12 A3023 RMK A01 T02860122  RH  036%=      5-min Rain = 0
KPD1 111803Z 24005KT 29/11 A3023 RMK A01 T02890114  RH  034%=      5-min Rain = 0
KPD1 111804Z 25003KT 29/12 A3023 RMK A01 T02870116  RH  035%=      5-min Rain = 0
KPD1 111805Z 27003KT 29/11 A3023 RMK A01 T02870114  RH  034%=      5-min Rain = 0
KPD1 111806Z 26004KT 29/11 A3023 RMK A01 T02870111  RH  033%=      5-min Rain = 0
KPD1 111807Z 26005KT 29/12 A3023 RMK A01 T02870116  RH  035%=      5-min Rain = 0
KPD1 111808Z 28004KT 29/12 A3023 RMK A01 T02890115  RH  034%=      5-min Rain = 0
KPD1 111809Z 28004KT 29/12 A3023 RMK A01 T02910119  RH  035%=      5-min Rain = 0
KPD1 111810Z 32004KT 29/11 A3023 RMK A01 T02920114  RH  033%=      5-min Rain = 0
KPD1 111811Z 31004KT 29/11 A3023 RMK A01 T02920113  RH  033%=      5-min Rain = 0
KPD1 111812Z 33003KT 29/11 A3023 RMK A01 T02910113  RH  033%=      5-min Rain = 0
KPD1 111813Z 26004KT 29/11 A3023 RMK A01 T02900110  RH  033%=      5-min Rain = 0
KPD1 111814Z 28006KT 29/11 A3023 RMK A01 T02890112  RH  033%=      5-min Rain = 0
KPD1 111815Z 30005KT 29/11 A3023 RMK A01 T02890114  RH  034%=      5-min Rain = 0
KPD1 111816Z 33005KT 29/11 A3023 RMK A01 T02890112  RH  033%=      5-min Rain = 0
KPD1 111817Z 33005KT 29/11 A3023 RMK A01 T02880114  RH  034%=      5-min Rain = 0
KPD1 111818Z 34004KT 29/11 A3023 RMK A01 T02880111  RH  033%=      5-min Rain = 0
KPD1 111819Z 31001KT 29/11 A3023 RMK A01 T02860108  RH  033%=      5-min Rain = 0
KPD1 111820Z 24003KT 29/11 A3023 RMK A01 T02850110  RH  034%=      5-min Rain = 0
KPD1 111821Z 26003KT 29/11 A3023 RMK A01 T02860112  RH  034%=      5-min Rain = 0
KPD1 111822Z 27004KT 29/11 A3023 RMK A01 T02890113  RH  034%=      5-min Rain = 0
KPD1 111823Z 26002KT 29/11 A3023 RMK A01 T02900110  RH  033%=      5-min Rain = 0
KPD1 111824Z 18001KT 29/12 A3022 RMK A01 T02910115  RH  034%=      5-min Rain = 0
KPD1 111825Z 13001KT 29/11 A3022 RMK A01 T02920108  RH  032%=      5-min Rain = 0
KPD1 111826Z 22002KT 29/11 A3022 RMK A01 T02920110  RH  032%=      5-min Rain = 0
KPD1 111827Z 24003KT 29/11 A3022 RMK A01 T02920110  RH  032%=      5-min Rain = 0
KPD1 111828Z 20003KT 29/11 A3022 RMK A01 T02920111  RH  033%=      5-min Rain = 0
KPD1 111829Z 23001KT 29/11 A3022 RMK A01 T02940112  RH  032%=      5-min Rain = 0
KPD1 111830Z 28002KT 30/11 A3022 RMK A01 T02950110  RH  032%=      5-min Rain = 0
KPD1 111831Z 22002KT 29/11 A3022 RMK A01 T02930109  RH  032%=      5-min Rain = 0
KPD1 111832Z 21003KT 29/11 A3022 RMK A01 T02920112  RH  033%=      5-min Rain = 0
KPD1 111833Z 23002KT 29/11 A3022 RMK A01 T02930111  RH  032%=      5-min Rain = 0
KPD1 111834Z 30002KT 30/11 A3022 RMK A01 T02950112  RH  032%=      5-min Rain = 0
KPD1 111835Z 33005KT 30/11 A3022 RMK A01 T02960113  RH  032%=      5-min Rain = 0
KPD1 111836Z 33005KT 30/12 A3022 RMK A01 T02950115  RH  033%=      5-min Rain = 0
KPD1 111837Z 32004KT 30/12 A3022 RMK A01 T02950116  RH  033%=      5-min Rain = 0
KPD1 111838Z 27004KT 30/11 A3022 RMK A01 T02950113  RH  033%=      5-min Rain = 0
KPD1 111839Z 34004KT 30/11 A3022 RMK A01 T02950110  RH  032%=      5-min Rain = 0
KPD1 111840Z 36005KT 29/11 A3022 RMK A01 T02930112  RH  033%=      5-min Rain = 0
KPD1 111841Z 35005KT 29/11 A3021 RMK A01 T02930113  RH  033%=      5-min Rain = 0
KPD1 111842Z 00005KT 30/12 A3021 RMK A01 T02950118  RH  034%=      5-min Rain = 0
KPD1 111843Z 32003KT 30/11 A3021 RMK A01 T02970114  RH  032%=      5-min Rain = 0
KPD1 111844Z 31004KT 30/11 A3021 RMK A01 T02980112  RH  032%=      5-min Rain = 0
KPD1 111845Z 32003KT 30/12 A3021 RMK A01 T02970115  RH  033%=      5-min Rain = 0
KPD1 111846Z 32000KT 30/11 A3021 RMK A01 T02970106  RH  031%=      5-min Rain = 0
KPD1 111847Z 07000KT 30/11 A3021 RMK A01 T02960107  RH  031%=      5-min Rain = 0
KPD1 111848Z 09003KT 30/11 A3021 RMK A01 T02950112  RH  032%=      5-min Rain = 0
KPD1 111849Z 09003KT 30/11 A3021 RMK A01 T02970110  RH  031%=      5-min Rain = 0
KPD1 111850Z 07003KT 30/11 A3021 RMK A01 T02970109  RH  031%=      5-min Rain = 0
KPD1 111851Z 02001KT 30/11 A3021 RMK A01 T02960110  RH  031%=      5-min Rain = 0
KPD1 111852Z 32002KT 30/11 A3021 RMK A01 T02960112  RH  032%=      5-min Rain = 0
KPD1 111853Z 29003KT 30/11 A3021 RMK A01 T02960111  RH  032%=      5-min Rain = 0
KPD1 111854Z 27004KT 30/11 A3021 RMK A01 T02950112  RH  032%=      5-min Rain = 0
KPD1 111855Z 25003KT 30/11 A3021 RMK A01 T02950109  RH  032%=      5-min Rain = 0
KPD1 111856Z 26002KT 30/11 A3021 RMK A01 T02950109  RH  032%=      5-min Rain = 0
KPD1 111857Z 31003KT 30/11 A3021 RMK A01 T02950113  RH  032%=      5-min Rain = 0
KPD1 111858Z 33006KT 30/11 A3021 RMK A01 T02970114  RH  032%=      5-min Rain = 0
KPD1 111859Z 35005KT 30/11 A3021 RMK A01 T02980114  RH  032%=      5-min Rain = 0
KPD1 111900Z 34003KT 30/12 A3021 RMK A01 T02990116  RH  032%=      5-min Rain = 0
KPD1 111901Z 34001KT 30/11 A3021 RMK A01 T03010110  RH  031%=      5-min Rain = 0
KPD1 111902Z 30000KT 30/11 A302 RMK A01 T03000107  RH  030%=      5-min Rain = 0
KPD1 111903Z 34002KT 30/12 A302 RMK A01 T03000116  RH  032%=      5-min Rain = 0
KPD1 111904Z 03004KT 30/11 A302 RMK A01 T03010113  RH  031%=      5-min Rain = 0
KPD1 111905Z 04003KT 30/11 A302 RMK A01 T03010108  RH  030%=      5-min Rain = 0
KPD1 111906Z 03002KT 30/11 A302 RMK A01 T02990108  RH  031%=      5-min Rain = 0
KPD1 111907Z 06002KT 30/11 A302 RMK A01 T02980108  RH  031%=      5-min Rain = 0
KPD1 111908Z 05002KT 30/11 A302 RMK A01 T02970108  RH  031%=      5-min Rain = 0
KPD1 111909Z 06001KT 30/11 A302 RMK A01 T02970109  RH  031%=      5-min Rain = 0
KPD1 111910Z 07001KT 30/11 A302 RMK A01 T02970105  RH  030%=      5-min Rain = 0
KPD1 111911Z 27000KT 30/11 A302 RMK A01 T02970107  RH  031%=      5-min Rain = 0
KPD1 111912Z 19001KT 30/11 A302 RMK A01 T02980106  RH  030%=      5-min Rain = 0
KPD1 111913Z 36001KT 30/11 A302 RMK A01 T02990110  RH  031%=      5-min Rain = 0
KPD1 111914Z 02004KT 30/11 A302 RMK A01 T03010112  RH  031%=      5-min Rain = 0
KPD1 111915Z 04004KT 30/11 A302 RMK A01 T03020108  RH  030%=      5-min Rain = 0
KPD1 111916Z 08003KT 30/11 A302 RMK A01 T03010110  RH  031%=      5-min Rain = 0
KPD1 111917Z 10004KT 30/11 A302 RMK A01 T03010112  RH  031%=      5-min Rain = 0
KPD1 111918Z 09002KT 30/11 A302 RMK A01 T03030110  RH  030%=      5-min Rain = 0
KPD1 111919Z 12001KT 30/11 A302 RMK A01 T03030107  RH  030%=      5-min Rain = 0
KPD1 111920Z 15000KT 30/11 A302 RMK A01 T03020108  RH  030%=      5-min Rain = 0
KPD1 111921Z 22000KT 30/10 A302 RMK A01 T03020104  RH  029%=      5-min Rain = 0
KPD1 111922Z 31000KT 30/11 A302 RMK A01 T03010107  RH  030%=      5-min Rain = 0
KPD1 111923Z 22003KT 30/11 A302 RMK A01 T03000109  RH  031%=      5-min Rain = 0
KPD1 111924Z 18003KT 30/11 A302 RMK A01 T03020114  RH  031%=      5-min Rain = 0
KPD1 111925Z 21001KT 31/11 A302 RMK A01 T03060113  RH  030%=      5-min Rain = 0
KPD1 111926Z 23001KT 31/11 A302 RMK A01 T03070111  RH  030%=      5-min Rain = 0
KPD1 111927Z 23002KT 31/12 A302 RMK A01 T03080117  RH  031%=      5-min Rain = 0
KPD1 111928Z 24004KT 31/12 A302 RMK A01 T03100117  RH  031%=      5-min Rain = 0
KPD1 111929Z 22004KT 31/12 A302 RMK A01 T03120115  RH  030%=      5-min Rain = 0
KPD1 111930Z 23004KT 31/11 A302 RMK A01 T03090108  RH  029%=      5-min Rain = 0
KPD1 111931Z 25001KT 30/11 A302 RMK A01 T03040109  RH  030%=      5-min Rain = 0
KPD1 111932Z 20002KT 30/11 A302 RMK A01 T03020108  RH  030%=      5-min Rain = 0
KPD1 111933Z 18003KT 30/11 A302 RMK A01 T03020112  RH  031%=      5-min Rain = 0
KPD1 111934Z 18002KT 30/12 A302 RMK A01 T03040116  RH  032%=      5-min Rain = 0
KPD1 111935Z 25003KT 31/12 A3019 RMK A01 T03070117  RH  031%=      5-min Rain = 0
KPD1 111936Z 28001KT 31/11 A3019 RMK A01 T03080111  RH  030%=      5-min Rain = 0
KPD1 111937Z 21002KT 31/11 A3019 RMK A01 T03060113  RH  031%=      5-min Rain = 0
KPD1 111938Z 22005KT 31/11 A3019 RMK A01 T03060114  RH  031%=      5-min Rain = 0
KPD1 111939Z 24003KT 31/11 A3019 RMK A01 T03060114  RH  031%=      5-min Rain = 0
KPD1 111940Z 23003KT 31/12 A3019 RMK A01 T03080117  RH  031%=      5-min Rain = 0
KPD1 111941Z 27003KT 31/12 A3019 RMK A01 T03090115  RH  030%=      5-min Rain = 0
KPD1 111942Z 28005KT 31/12 A3019 RMK A01 T03090116  RH  031%=      5-min Rain = 0
KPD1 111943Z 28003KT 31/12 A3019 RMK A01 T03100121  RH  031%=      5-min Rain = 0
KPD1 111944Z 30003KT 31/11 A3019 RMK A01 T03120114  RH  030%=      5-min Rain = 0
KPD1 111945Z 31004KT 31/11 A3019 RMK A01 T03100113  RH  030%=      5-min Rain = 0
KPD1 111946Z 29002KT 31/12 A3019 RMK A01 T03080115  RH  031%=      5-min Rain = 0
KPD1 111947Z 30005KT 31/12 A3019 RMK A01 T03080115  RH  030%=      5-min Rain = 0
KPD1 111948Z 30005KT 31/11 A3019 RMK A01 T03080114  RH  030%=      5-min Rain = 0
KPD1 111949Z 30003KT 31/11 A3019 RMK A01 T03070111  RH  030%=      5-min Rain = 0
KPD1 111950Z 33001KT 31/11 A3019 RMK A01 T03060113  RH  031%=      5-min Rain = 0
KPD1 111951Z 32000KT 31/12 A3019 RMK A01 T03060121  RH  032%=      5-min Rain = 0
KPD1 111952Z 29002KT 31/11 A3019 RMK A01 T03070113  RH  030%=      5-min Rain = 0
KPD1 111953Z 27004KT 31/11 A3019 RMK A01 T03070111  RH  030%=      5-min Rain = 0
KPD1 111954Z 30003KT 30/11 A3019 RMK A01 T03040111  RH  030%=      5-min Rain = 0
KPD1 111955Z 32001KT 30/11 A3019 RMK A01 T03040111  RH  030%=      5-min Rain = 0
KPD1 111956Z 30003KT 30/11 A3019 RMK A01 T03040111  RH  030%=      5-min Rain = 0
KPD1 111957Z 31004KT 31/12 A3019 RMK A01 T03050115  RH  031%=      5-min Rain = 0
KPD1 111958Z 32004KT 31/11 A3019 RMK A01 T03060111  RH  030%=      5-min Rain = 0
KPD1 111959Z 34002KT 31/11 A3019 RMK A01 T03050110  RH  030%=      5-min Rain = 0
KPD1 112000Z 01003KT 30/11 A3018 RMK A01 T03040111  RH  031%=      5-min Rain = 0
KPD1 112001Z 36002KT 30/11 A3018 RMK A01 T03030109  RH  030%=      5-min Rain = 0
KPD1 112002Z 33004KT 30/11 A3018 RMK A01 T03040109  RH  030%=      5-min Rain = 0
KPD1 112003Z 36004KT 30/11 A3018 RMK A01 T03040110  RH  030%=      5-min Rain = 0
KPD1 112004Z 00003KT 30/11 A3018 RMK A01 T03030111  RH  031%=      5-min Rain = 0
KPD1 112005Z 35004KT 30/11 A3018 RMK A01 T03030113  RH  031%=      5-min Rain = 0
KPD1 112006Z 36003KT 31/11 A3018 RMK A01 T03050114  RH  031%=      5-min Rain = 0
KPD1 112007Z 00003KT 31/11 A3018 RMK A01 T03060110  RH  030%=      5-min Rain = 0
KPD1 112008Z 01001KT 31/11 A3018 RMK A01 T03060111  RH  030%=      5-min Rain = 0
KPD1 112009Z 36001KT 31/11 A3018 RMK A01 T03060113  RH  031%=      5-min Rain = 0
KPD1 112010Z 31002KT 31/11 A3018 RMK A01 T03080112  RH  030%=      5-min Rain = 0
KPD1 112011Z 27002KT 31/11 A3018 RMK A01 T03080109  RH  029%=      5-min Rain = 0
KPD1 112012Z 35001KT 31/11 A3018 RMK A01 T03080114  RH  030%=      5-min Rain = 0
KPD1 112013Z 15002KT 31/11 A3018 RMK A01 T03090113  RH  030%=      5-min Rain = 0
KPD1 112014Z 20001KT 31/11 A3018 RMK A01 T03120109  RH  029%=      5-min Rain = 0
KPD1 112015Z 16002KT 31/11 A3018 RMK A01 T03120109  RH  029%=      5-min Rain = 0
KPD1 112016Z 16004KT 31/11 A3018 RMK A01 T03120106  RH  028%=      5-min Rain = 0
KPD1 112017Z 16003KT 31/11 A3017 RMK A01 T03120109  RH  029%=      5-min Rain = 0
KPD1 112018Z 17003KT 31/11 A3017 RMK A01 T03130111  RH  029%=      5-min Rain = 0
KPD1 112019Z 15004KT 32/11 A3017 RMK A01 T03150112  RH  029%=      5-min Rain = 0
KPD1 112020Z 15004KT 32/11 A3017 RMK A01 T03170111  RH  028%=      5-min Rain = 0
KPD1 112021Z 16004KT 32/11 A3017 RMK A01 T03180112  RH  028%=      5-min Rain = 0
KPD1 112022Z 15004KT 32/11 A3017 RMK A01 T03190109  RH  028%=      5-min Rain = 0
KPD1 112023Z 19003KT 32/10 A3017 RMK A01 T03170104  RH  027%=      5-min Rain = 0
KPD1 112024Z 18007KT 31/11 A3017 RMK A01 T03140105  RH  028%=      5-min Rain = 0
KPD1 112025Z 19003KT 31/10 A3017 RMK A01 T03120102  RH  027%=      5-min Rain = 0
KPD1 112026Z 19005G10KT 31/10 A3017 RMK A01 T03100104  RH  028%=      5-min Rain = 0
KPD1 112027Z 17006KT 31/11 A3017 RMK A01 T03100105  RH  028%=      5-min Rain = 0
KPD1 112028Z 22005KT 31/11 A3017 RMK A01 T03100111  RH  029%=      5-min Rain = 0
KPD1 112029Z 21004KT 31/11 A3017 RMK A01 T03130110  RH  029%=      5-min Rain = 0
KPD1 112030Z 23003KT 32/11 A3017 RMK A01 T03150113  RH  029%=      5-min Rain = 0
KPD1 112031Z 22005KT 32/11 A3017 RMK A01 T03170114  RH  029%=      5-min Rain = 0
KPD1 112032Z 24007KT 32/11 A3017 RMK A01 T03180108  RH  028%=      5-min Rain = 0
KPD1 112033Z 24005KT 32/10 A3017 RMK A01 T03150103  RH  027%=      5-min Rain = 0
KPD1 112034Z 23004KT 31/10 A3017 RMK A01 T03100104  RH  028%=      5-min Rain = 0
KPD1 112035Z 26003KT 31/11 A3017 RMK A01 T03090105  RH  029%=      5-min Rain = 0
KPD1 112036Z 26005KT 31/11 A3017 RMK A01 T03090109  RH  029%=      5-min Rain = 0
KPD1 112037Z 27005KT 31/11 A3017 RMK A01 T03100107  RH  029%=      5-min Rain = 0
KPD1 112038Z 27005KT 31/11 A3017 RMK A01 T03100109  RH  029%=      5-min Rain = 0
KPD1 112039Z 27004KT 31/11 A3017 RMK A01 T03100107  RH  029%=      5-min Rain = 0
KPD1 112040Z 28004KT 31/11 A3017 RMK A01 T03100108  RH  029%=      5-min Rain = 0
KPD1 112041Z 28004KT 31/11 A3017 RMK A01 T03100111  RH  029%=      5-min Rain = 0
KPD1 112042Z 30004KT 31/11 A3017 RMK A01 T03110111  RH  029%=      5-min Rain = 0
KPD1 112043Z 32003KT 31/11 A3017 RMK A01 T03120109  RH  029%=      5-min Rain = 0
KPD1 112044Z 34001KT 31/11 A3017 RMK A01 T03110110  RH  029%=      5-min Rain = 0
KPD1 112045Z 28001KT 31/11 A3016 RMK A01 T03130113  RH  029%=      5-min Rain = 0
KPD1 112046Z 22001KT 32/11 A3016 RMK A01 T03150112  RH  029%=      5-min Rain = 0
KPD1 112047Z 14002KT 32/11 A3016 RMK A01 T03160106  RH  028%=      5-min Rain = 0
KPD1 112048Z 12003KT 32/11 A3016 RMK A01 T03160106  RH  027%=      5-min Rain = 0
KPD1 112049Z 13002KT 32/11 A3016 RMK A01 T03160108  RH  028%=      5-min Rain = 0
KPD1 112050Z 16003KT 32/11 A3016 RMK A01 T03160107  RH  028%=      5-min Rain = 0
KPD1 112051Z 18003KT 32/11 A3016 RMK A01 T03170110  RH  028%=      5-min Rain = 0
KPD1 112052Z 22004KT 32/11 A3016 RMK A01 T03180107  RH  027%=      5-min Rain = 0
KPD1 112053Z 20003KT 32/11 A3016 RMK A01 T03190111  RH  028%=      5-min Rain = 0
KPD1 112054Z 17002KT 32/11 A3016 RMK A01 T03200110  RH  027%=      5-min Rain = 0
KPD1 112055Z 14002KT 32/11 A3016 RMK A01 T03210106  RH  027%=      5-min Rain = 0
KPD1 112056Z 13003KT 32/10 A3016 RMK A01 T03200104  RH  026%=      5-min Rain = 0
KPD1 112057Z 12003KT 32/10 A3016 RMK A01 T03180104  RH  027%=      5-min Rain = 0
KPD1 112058Z 09002KT 32/11 A3016 RMK A01 T03180107  RH  027%=      5-min Rain = 0
KPD1 112059Z 13000KT 32/10 A3016 RMK A01 T03170102  RH  027%=      5-min Rain = 0
KPD1 112100Z 25001KT 32/10 A3016 RMK A01 T03160102  RH  027%=      5-min Rain = 0
KPD1 112101Z 32002KT 31/10 A3016 RMK A01 T03140103  RH  027%=      5-min Rain = 0
KPD1 112102Z 09002KT 31/11 A3016 RMK A01 T03140106  RH  028%=      5-min Rain = 0
KPD1 112103Z 10002KT 31/10 A3016 RMK A01 T03140104  RH  027%=      5-min Rain = 0
KPD1 112104Z 09002KT 31/11 A3016 RMK A01 T03140108  RH  028%=      5-min Rain = 0
KPD1 112105Z 11003KT 32/11 A3016 RMK A01 T03150109  RH  028%=      5-min Rain = 0
KPD1 112106Z 12003KT 32/10 A3016 RMK A01 T03160103  RH  027%=      5-min Rain = 0
KPD1 112107Z 14003KT 32/10 A3016 RMK A01 T03160102  RH  027%=      5-min Rain = 0
KPD1 112108Z 14004KT 32/10 A3016 RMK A01 T03160104  RH  027%=      5-min Rain = 0
KPD1 112109Z 13002KT 32/10 A3015 RMK A01 T03150103  RH  027%=      5-min Rain = 0
KPD1 112110Z 12001KT 32/11 A3015 RMK A01 T03150108  RH  028%=      5-min Rain = 0
KPD1 112111Z 14003KT 32/11 A3015 RMK A01 T03160107  RH  028%=      5-min Rain = 0
KPD1 112112Z 13002KT 32/10 A3015 RMK A01 T03170103  RH  027%=      5-min Rain = 0
KPD1 112113Z 13001KT 32/10 A3015 RMK A01 T03170100  RH  026%=      5-min Rain = 0
KPD1 112114Z 12003KT 32/10 A3015 RMK A01 T03160101  RH  027%=      5-min Rain = 0
KPD1 112115Z 13001KT 31/10 A3015 RMK A01 T03140102  RH  027%=      5-min Rain = 0
KPD1 112116Z 06002KT 31/10 A3015 RMK A01 T03140102  RH  027%=      5-min Rain = 0
KPD1 112117Z 06004KT 31/10 A3015 RMK A01 T03140104  RH  027%=      5-min Rain = 0
KPD1 112118Z 09004KT 31/11 A3015 RMK A01 T03140106  RH  028%=      5-min Rain = 0
KPD1 112119Z 06002KT 31/10 A3015 RMK A01 T03130103  RH  027%=      5-min Rain = 0
KPD1 112120Z 24001KT 31/11 A3015 RMK A01 T03120106  RH  028%=      5-min Rain = 0
KPD1 112121Z 28003KT 31/10 A3015 RMK A01 T03130104  RH  028%=      5-min Rain = 0
KPD1 112122Z 28005KT 32/11 A3015 RMK A01 T03150107  RH  028%=      5-min Rain = 0
KPD1 112123Z 25006KT 32/11 A3015 RMK A01 T03170108  RH  028%=      5-min Rain = 0
KPD1 112124Z 25006KT 32/11 A3015 RMK A01 T03180107  RH  027%=      5-min Rain = 0
KPD1 112125Z 24005KT 32/10 A3015 RMK A01 T03170104  RH  027%=      5-min Rain = 0
KPD1 112126Z 23002KT 32/10 A3015 RMK A01 T03160099  RH  026%=      5-min Rain = 0
KPD1 112127Z 19005KT 31/10 A3015 RMK A01 T03140102  RH  027%=      5-min Rain = 0
KPD1 112128Z 20004KT 31/10 A3015 RMK A01 T03140104  RH  027%=      5-min Rain = 0
KPD1 112129Z 26004KT 32/10 A3015 RMK A01 T03150100  RH  027%=      5-min Rain = 0
KPD1 112130Z 25004KT 32/10 A3015 RMK A01 T03150102  RH  027%=      5-min Rain = 0
KPD1 112131Z 26005KT 32/11 A3015 RMK A01 T03150108  RH  028%=      5-min Rain = 0
KPD1 112132Z 25005KT 32/11 A3014 RMK A01 T03180108  RH  028%=      5-min Rain = 0
KPD1 112133Z 28004KT 32/11 A3015 RMK A01 T03190108  RH  027%=      5-min Rain = 0
KPD1 112134Z 24003KT 32/11 A3014 RMK A01 T03200108  RH  027%=      5-min Rain = 0
KPD1 112135Z 23004KT 32/10 A3014 RMK A01 T03200104  RH  026%=      5-min Rain = 0
KPD1 112136Z 23004KT 32/11 A3014 RMK A01 T03200107  RH  027%=      5-min Rain = 0
KPD1 112137Z 22005KT 32/11 A3014 RMK A01 T03200107  RH  027%=      5-min Rain = 0
KPD1 112138Z 22006KT 32/11 A3014 RMK A01 T03210107  RH  027%=      5-min Rain = 0
KPD1 112139Z 22004KT 32/10 A3014 RMK A01 T03190104  RH  027%=      5-min Rain = 0
KPD1 112140Z 25003KT 32/10 A3014 RMK A01 T03160104  RH  027%=      5-min Rain = 0
KPD1 112141Z 24003KT 32/10 A3014 RMK A01 T03160104  RH  027%=      5-min Rain = 0
KPD1 112142Z 24004KT 32/11 A3014 RMK A01 T03160105  RH  027%=      5-min Rain = 0
KPD1 112143Z 25004KT 32/11 A3014 RMK A01 T03160106  RH  027%=      5-min Rain = 0
KPD1 112144Z 26005KT 32/11 A3014 RMK A01 T03170107  RH  028%=      5-min Rain = 0
KPD1 112145Z 26003KT 32/11 A3014 RMK A01 T03170107  RH  027%=      5-min Rain = 0
KPD1 112146Z 27003KT 32/10 A3014 RMK A01 T03180103  RH  027%=      5-min Rain = 0
KPD1 112147Z 30003KT 32/10 A3014 RMK A01 T03160102  RH  027%=      5-min Rain = 0
KPD1 112148Z 29003KT 32/10 A3014 RMK A01 T03150104  RH  027%=      5-min Rain = 0
KPD1 112149Z 28006KT 32/11 A3014 RMK A01 T03150108  RH  028%=      5-min Rain = 0
KPD1 112150Z 25004KT 32/10 A3014 RMK A01 T03150103  RH  027%=      5-min Rain = 0
KPD1 112151Z 28001KT 31/10 A3014 RMK A01 T03140103  RH  027%=      5-min Rain = 0
KPD1 112152Z 33003KT 31/10 A3014 RMK A01 T03140101  RH  027%=      5-min Rain = 0
KPD1 112153Z 33001KT 32/10 A3014 RMK A01 T03150103  RH  027%=      5-min Rain = 0
KPD1 112154Z 02003KT 31/10 A3014 RMK A01 T03140103  RH  027%=      5-min Rain = 0
KPD1 112155Z 01003KT 31/10 A3014 RMK A01 T03130102  RH  027%=      5-min Rain = 0
KPD1 112156Z 01003KT 31/10 A3014 RMK A01 T03110100  RH  027%=      5-min Rain = 0
KPD1 112157Z 03003KT 31/11 A3014 RMK A01 T03100106  RH  029%=      5-min Rain = 0
KPD1 112158Z 02002KT 31/11 A3014 RMK A01 T03100105  RH  028%=      5-min Rain = 0
KPD1 112159Z 03002KT 31/11 A3014 RMK A01 T03120111  RH  029%=      5-min Rain = 0
KPD1 112200Z 36002KT 31/11 A3014 RMK A01 T03140110  RH  028%=      5-min Rain = 0
KPD1 112201Z 01003KT 32/11 A3014 RMK A01 T03160107  RH  028%=      5-min Rain = 0
KPD1 112202Z 01003KT 32/11 A3014 RMK A01 T03160107  RH  028%=      5-min Rain = 0
KPD1 112203Z 05004KT 32/11 A3013 RMK A01 T03160107  RH  028%=      5-min Rain = 0
KPD1 112204Z 06003KT 32/11 A3013 RMK A01 T03160108  RH  028%=      5-min Rain = 0
KPD1 112205Z 04002KT 32/11 A3013 RMK A01 T03150111  RH  028%=      5-min Rain = 0
KPD1 112206Z 03002KT 32/11 A3013 RMK A01 T03160108  RH  028%=      5-min Rain = 0
KPD1 112207Z 06000KT 32/11 A3013 RMK A01 T03160106  RH  027%=      5-min Rain = 0
KPD1 112208Z 00000KT 32/11 A3013 RMK A01 T03160107  RH  028%=      5-min Rain = 0
KPD1 112209Z 13001KT 32/11 A3013 RMK A01 T03170108  RH  028%=      5-min Rain = 0
KPD1 112210Z 14002KT 32/11 A3013 RMK A01 T03190112  RH  028%=      5-min Rain = 0
KPD1 112211Z 11004KT 32/11 A3013 RMK A01 T03210113  RH  028%=      5-min Rain = 0
KPD1 112212Z 09003KT 32/11 A3013 RMK A01 T03230111  RH  027%=      5-min Rain = 0
KPD1 112213Z 11003KT 32/11 A3013 RMK A01 T03230111  RH  027%=      5-min Rain = 0
KPD1 112214Z 17007KT 32/11 A3013 RMK A01 T03220108  RH  027%=      5-min Rain = 0
KPD1 112215Z 20008KT 32/11 A3013 RMK A01 T03210110  RH  027%=      5-min Rain = 0
KPD1 112216Z 20005KT 32/11 A3013 RMK A01 T03190108  RH  027%=      5-min Rain = 0
KPD1 112217Z 19002KT 32/11 A3013 RMK A01 T03180113  RH  028%=      5-min Rain = 0
KPD1 112218Z 30003KT 32/11 A3013 RMK A01 T03190109  RH  027%=      5-min Rain = 0
KPD1 112219Z 30003KT 32/11 A3013 RMK A01 T03190111  RH  028%=      5-min Rain = 0
KPD1 112220Z 32003KT 32/11 A3013 RMK A01 T03190107  RH  027%=      5-min Rain = 0
KPD1 112221Z 34002KT 32/11 A3013 RMK A01 T03180108  RH  028%=      5-min Rain = 0
KPD1 112222Z 00002KT 32/11 A3013 RMK A01 T03170105  RH  027%=      5-min Rain = 0
KPD1 112223Z 24004KT 32/11 A3013 RMK A01 T03160106  RH  028%=      5-min Rain = 0
KPD1 112224Z 24005KT 32/10 A3013 RMK A01 T03160104  RH  027%=      5-min Rain = 0
KPD1 112225Z 23005KT 31/10 A3013 RMK A01 T03140104  RH  027%=      5-min Rain = 0
KPD1 112226Z 24003KT 31/11 A3013 RMK A01 T03140106  RH  028%=      5-min Rain = 0
KPD1 112227Z 24005KT 31/11 A3013 RMK A01 T03140108  RH  028%=      5-min Rain = 0
KPD1 112228Z 24004KT 32/11 A3013 RMK A01 T03150108  RH  028%=      5-min Rain = 0
KPD1 112229Z 24004KT 32/11 A3013 RMK A01 T03150105  RH  027%=      5-min Rain = 0
KPD1 112230Z 24003KT 32/10 A3013 RMK A01 T03150104  RH  027%=      5-min Rain = 0
KPD1 112231Z 22002KT 31/10 A3013 RMK A01 T03140104  RH  027%=      5-min Rain = 0
KPD1 112232Z 24001KT 32/11 A3013 RMK A01 T03150111  RH  029%=      5-min Rain = 0
KPD1 112233Z 26001KT 32/11 A3013 RMK A01 T03170108  RH  028%=      5-min Rain = 0
KPD1 112234Z 24005KT 32/11 A3013 RMK A01 T03180110  RH  028%=      5-min Rain = 0
KPD1 112235Z 26006KT 32/11 A3013 RMK A01 T03190109  RH  028%=      5-min Rain = 0
KPD1 112236Z 29006KT 32/11 A3013 RMK A01 T03190109  RH  027%=      5-min Rain = 0
KPD1 112237Z 28004KT 32/11 A3013 RMK A01 T03170106  RH  027%=      5-min Rain = 0
KPD1 112238Z 25002KT 32/10 A3013 RMK A01 T03150102  RH  027%=      5-min Rain = 0
KPD1 112239Z 29005KT 32/11 A3013 RMK A01 T03150107  RH  028%=      5-min Rain = 0
KPD1 112240Z 30005KT 32/10 A3013 RMK A01 T03150104  RH  027%=      5-min Rain = 0
KPD1 112241Z 30004KT 31/11 A3013 RMK A01 T03140108  RH  028%=      5-min Rain = 0
KPD1 112242Z 29003KT 31/11 A3013 RMK A01 T03140107  RH  028%=      5-min Rain = 0
KPD1 112243Z 32003KT 31/11 A3013 RMK A01 T03140105  RH  028%=      5-min Rain = 0
KPD1 112244Z 31003KT 31/11 A3013 RMK A01 T03140106  RH  028%=      5-min Rain = 0
KPD1 112245Z 32002KT 32/11 A3013 RMK A01 T03150109  RH  028%=      5-min Rain = 0
KPD1 112246Z 29001KT 32/10 A3013 RMK A01 T03160102  RH  027%=      5-min Rain = 0
KPD1 112247Z 25000KT 32/11 A3013 RMK A01 T03160109  RH  028%=      5-min Rain = 0
KPD1 112248Z 27000KT 32/11 A3013 RMK A01 T03170110  RH  028%=      5-min Rain = 0
KPD1 112249Z 29002KT 32/11 A3013 RMK A01 T03180106  RH  027%=      5-min Rain = 0
KPD1 112250Z 28002KT 32/11 A3013 RMK A01 T03190109  RH  028%=      5-min Rain = 0
KPD1 112251Z 26002KT 32/11 A3013 RMK A01 T03180111  RH  028%=      5-min Rain = 0
KPD1 112252Z 27004KT 32/11 A3013 RMK A01 T03180108  RH  027%=      5-min Rain = 0
KPD1 112253Z 28004KT 32/11 A3013 RMK A01 T03170107  RH  027%=      5-min Rain = 0
KPD1 112254Z 29003KT 32/11 A3013 RMK A01 T03160105  RH  027%=      5-min Rain = 0
KPD1 112255Z 29002KT 32/11 A3013 RMK A01 T03150106  RH  028%=      5-min Rain = 0
KPD1 112256Z 31001KT 32/11 A3013 RMK A01 T03150108  RH  028%=      5-min Rain = 0
KPD1 112257Z 29000KT 32/11 A3013 RMK A01 T03160107  RH  028%=      5-min Rain = 0
KPD1 112258Z 26001KT 32/11 A3013 RMK A01 T03170109  RH  028%=      5-min Rain = 0
KPD1 112259Z 29002KT 32/11 A3013 RMK A01 T03180110  RH  028%=      5-min Rain = 0
KPD1 112300Z 28002KT 32/11 A3013 RMK A01 T03180109  RH  028%=      5-min Rain = 0
KPD1 112301Z 26003KT 32/11 A3013 RMK A01 T03180107  RH  027%=      5-min Rain = 0
KPD1 112302Z 22005KT 32/11 A3013 RMK A01 T03180107  RH  027%=      5-min Rain = 0
KPD1 112303Z 22004KT 32/11 A3013 RMK A01 T03170107  RH  027%=      5-min Rain = 0
KPD1 112304Z 24003KT 32/11 A3013 RMK A01 T03160108  RH  028%=      5-min Rain = 0
KPD1 112305Z 22004KT 32/11 A3013 RMK A01 T03160110  RH  028%=      5-min Rain = 0
KPD1 112306Z 22003KT 32/11 A3013 RMK A01 T03160108  RH  028%=      5-min Rain = 0
KPD1 112307Z 20004KT 32/11 A3013 RMK A01 T03160109  RH  028%=      5-min Rain = 0
KPD1 112308Z 22003KT 32/11 A3013 RMK A01 T03160113  RH  029%=      5-min Rain = 0
KPD1 112309Z 20004KT 32/11 A3013 RMK A01 T03170110  RH  028%=      5-min Rain = 0
KPD1 112310Z 21003KT 32/11 A3013 RMK A01 T03160108  RH  028%=      5-min Rain = 0
KPD1 112311Z 22005KT 32/11 A3013 RMK A01 T03160108  RH  028%=      5-min Rain = 0
KPD1 112312Z 21003KT 32/11 A3013 RMK A01 T03150105  RH  027%=      5-min Rain = 0
KPD1 112313Z 22004KT 31/11 A3013 RMK A01 T03140106  RH  028%=      5-min Rain = 0
KPD1 112314Z 21003KT 31/11 A3013 RMK A01 T03130105  RH  028%=      5-min Rain = 0
KPD1 112315Z 19002KT 31/11 A3013 RMK A01 T03130106  RH  028%=      5-min Rain = 0
KPD1 112316Z 19002KT 31/11 A3013 RMK A01 T03130108  RH  028%=      5-min Rain = 0
KPD1 112317Z 18001KT 31/11 A3013 RMK A01 T03140106  RH  028%=      5-min Rain = 0
KPD1 112318Z 15001KT 31/11 A3013 RMK A01 T03140106  RH  028%=      5-min Rain = 0
KPD1 112319Z 17002KT 32/10 A3013 RMK A01 T03150103  RH  027%=      5-min Rain = 0
KPD1 112320Z 18002KT 32/11 A3013 RMK A01 T03150105  RH  027%=      5-min Rain = 0
KPD1 112321Z 18001KT 32/11 A3013 RMK A01 T03150108  RH  028%=      5-min Rain = 0
KPD1 112322Z 16003KT 32/11 A3013 RMK A01 T03150111  RH  028%=      5-min Rain = 0
KPD1 112323Z 17004KT 32/11 A3013 RMK A01 T03160112  RH  029%=      5-min Rain = 0
KPD1 112324Z 16004KT 32/11 A3013 RMK A01 T03150112  RH  029%=      5-min Rain = 0
KPD1 112325Z 16007KT 31/11 A3013 RMK A01 T03140111  RH  029%=      5-min Rain = 0
KPD1 112326Z 15005KT 31/11 A3013 RMK A01 T03130110  RH  029%=      5-min Rain = 0
KPD1 112327Z 15003KT 31/11 A3013 RMK A01 T03110109  RH  029%=      5-min Rain = 0
KPD1 112328Z 15003KT 31/11 A3013 RMK A01 T03100110  RH  029%=      5-min Rain = 0
KPD1 112329Z 14004KT 31/11 A3013 RMK A01 T03100110  RH  029%=      5-min Rain = 0
KPD1 112330Z 17004KT 31/11 A3013 RMK A01 T03090111  RH  029%=      5-min Rain = 0
KPD1 112331Z 17005KT 31/11 A3013 RMK A01 T03090113  RH  030%=      5-min Rain = 0
KPD1 112332Z 18006KT 31/11 A3013 RMK A01 T03090113  RH  030%=      5-min Rain = 0
KPD1 112333Z 19002KT 31/11 A3013 RMK A01 T03090112  RH  030%=      5-min Rain = 0
KPD1 112334Z 15003KT 31/11 A3013 RMK A01 T03080112  RH  030%=      5-min Rain = 0
KPD1 112335Z 17003KT 31/11 A3013 RMK A01 T03080113  RH  030%=      5-min Rain = 0
KPD1 112336Z 16004KT 31/12 A3013 RMK A01 T03090115  RH  030%=      5-min Rain = 0
KPD1 112337Z 17004KT 31/11 A3013 RMK A01 T03080113  RH  030%=      5-min Rain = 0
KPD1 112338Z 17004KT 31/11 A3013 RMK A01 T03080112  RH  030%=      5-min Rain = 0
KPD1 112339Z 16004KT 31/11 A3013 RMK A01 T03080111  RH  030%=      5-min Rain = 0
KPD1 112340Z 15003KT 31/11 A3013 RMK A01 T03080113  RH  030%=      5-min Rain = 0
KPD1 112341Z 17003KT 31/11 A3013 RMK A01 T03070114  RH  030%=      5-min Rain = 0
KPD1 112342Z 16006KT 31/11 A3013 RMK A01 T03080113  RH  030%=      5-min Rain = 0
KPD1 112343Z 17006KT 31/11 A3013 RMK A01 T03070111  RH  030%=      5-min Rain = 0
KPD1 112344Z 16006KT 31/11 A3013 RMK A01 T03060110  RH  030%=      5-min Rain = 0
KPD1 112345Z 15005KT 31/11 A3013 RMK A01 T03050110  RH  030%=      5-min Rain = 0
KPD1 112346Z 16005KT 30/11 A3013 RMK A01 T03040111  RH  030%=      5-min Rain = 0
KPD1 112347Z 16005KT 30/11 A3013 RMK A01 T03040112  RH  031%=      5-min Rain = 0
KPD1 112348Z 16004KT 30/11 A3013 RMK A01 T03040113  RH  031%=      5-min Rain = 0
KPD1 112349Z 16006KT 30/11 A3013 RMK A01 T03040113  RH  031%=      5-min Rain = 0
KPD1 112350Z 16005KT 30/11 A3013 RMK A01 T03030111  RH  031%=      5-min Rain = 0
KPD1 112351Z 16005KT 30/11 A3013 RMK A01 T03030109  RH  030%=      5-min Rain = 0
KPD1 112352Z 16005KT 30/11 A3013 RMK A01 T03020110  RH  031%=      5-min Rain = 0
KPD1 112353Z 16006KT 30/11 A3012 RMK A01 T03020109  RH  030%=      5-min Rain = 0
KPD1 112354Z 16004KT 30/11 A3012 RMK A01 T03010110  RH  031%=      5-min Rain = 0
KPD1 112355Z 15005KT 30/11 A3012 RMK A01 T03010110  RH  031%=      5-min Rain = 0
KPD1 112356Z 16005KT 30/11 A3012 RMK A01 T03000110  RH  031%=      5-min Rain = 0
KPD1 112357Z 16005KT 30/11 A3012 RMK A01 T03000111  RH  031%=      5-min Rain = 0
KPD1 112358Z 16006KT 30/11 A3012 RMK A01 T02990111  RH  031%=      5-min Rain = 0
KPD1 112359Z 16008KT 30/11 A3012 RMK A01 T02990110  RH  031%=      5-min Rain = 0
KPD1 120000Z 17007KT 30/11 A3012 RMK A01 T02980110  RH  031%=      5-min Rain = 0
KPD1 120001Z 16007KT 30/11 A3012 RMK A01 T02970111  RH  032%=      5-min Rain = 0
KPD1 120002Z 16006KT 30/11 A3012 RMK A01 T02960110  RH  032%=      5-min Rain = 0
KPD1 120003Z 16006KT 30/11 A3012 RMK A01 T02960111  RH  032%=      5-min Rain = 0
KPD1 120004Z 16007KT 30/11 A3012 RMK A01 T02960111  RH  032%=      5-min Rain = 0
KPD1 120005Z 16006KT 30/11 A3012 RMK A01 T02950110  RH  032%=      5-min Rain = 0
KPD1 120006Z 16006KT 29/11 A3012 RMK A01 T02940110  RH  032%=      5-min Rain = 0
KPD1 120007Z 17005KT 29/11 A3012 RMK A01 T02940110  RH  032%=      5-min Rain = 0
KPD1 120008Z 16006KT 29/11 A3012 RMK A01 T02930110  RH  032%=      5-min Rain = 0
KPD1 120009Z 17006KT 29/11 A3012 RMK A01 T02930110  RH  032%=      5-min Rain = 0
KPD1 120010Z 17006KT 29/11 A3012 RMK A01 T02930110  RH  032%=      5-min Rain = 0
KPD1 120011Z 16006KT 29/11 A3012 RMK A01 T02920110  RH  032%=      5-min Rain = 0
KPD1 120012Z 17005KT 29/11 A3012 RMK A01 T02920110  RH  032%=      5-min Rain = 0
KPD1 120013Z 16006KT 29/11 A3012 RMK A01 T02910111  RH  033%=      5-min Rain = 0
KPD1 120014Z 16004KT 29/11 A3012 RMK A01 T02910111  RH  033%=      5-min Rain = 0
KPD1 120015Z 16005KT 29/11 A3012 RMK A01 T02900111  RH  033%=      5-min Rain = 0
KPD1 120016Z 16006KT 29/11 A3012 RMK A01 T02900111  RH  033%=      5-min Rain = 0
KPD1 120017Z 16005KT 29/11 A3012 RMK A01 T02890111  RH  033%=      5-min Rain = 0
KPD1 120018Z 16006KT 29/11 A3012 RMK A01 T02880111  RH  033%=      5-min Rain = 0
KPD1 120019Z 16006KT 29/11 A3012 RMK A01 T02880111  RH  033%=      5-min Rain = 0
KPD1 120020Z 16007KT 29/11 A3012 RMK A01 T02880110  RH  033%=      5-min Rain = 0
KPD1 120021Z 15007KT 29/11 A3013 RMK A01 T02870110  RH  033%=      5-min Rain = 0
KPD1 120022Z 16007KT 29/11 A3013 RMK A01 T02870111  RH  034%=      5-min Rain = 0
KPD1 120023Z 15007KT 29/11 A3013 RMK A01 T02860110  RH  034%=      5-min Rain = 0
KPD1 120024Z 16004KT 29/11 A3013 RMK A01 T02850110  RH  034%=      5-min Rain = 0
KPD1 120025Z 16006KT 29/11 A3013 RMK A01 T02850112  RH  034%=      5-min Rain = 0
KPD1 120026Z 16006KT 29/11 A3013 RMK A01 T02850111  RH  034%=      5-min Rain = 0
KPD1 120027Z 16007KT 28/11 A3013 RMK A01 T02840110  RH  034%=      5-min Rain = 0
KPD1 120028Z 16008KT 28/11 A3013 RMK A01 T02830110  RH  034%=      5-min Rain = 0
KPD1 120029Z 16008KT 28/11 A3013 RMK A01 T02830110  RH  034%=      5-min Rain = 0
KPD1 120030Z 16007KT 28/11 A3013 RMK A01 T02820110  RH  034%=      5-min Rain = 0
KPD1 120031Z 16006KT 28/11 A3013 RMK A01 T02820110  RH  034%=      5-min Rain = 0
KPD1 120032Z 15007KT 28/11 A3013 RMK A01 T02810110  RH  035%=      5-min Rain = 0
KPD1 120033Z 16008KT 28/11 A3013 RMK A01 T02810111  RH  035%=      5-min Rain = 0
KPD1 120034Z 16007KT 28/11 A3012 RMK A01 T02800111  RH  035%=      5-min Rain = 0
KPD1 120035Z 15007KT 28/11 A3012 RMK A01 T02790110  RH  035%=      5-min Rain = 0
KPD1 120036Z 16007KT 28/11 A3012 RMK A01 T02790110  RH  035%=      5-min Rain = 0
KPD1 120037Z 15006KT 28/11 A3012 RMK A01 T02790111  RH  035%=      5-min Rain = 0
KPD1 120038Z 15007KT 28/11 A3012 RMK A01 T02780111  RH  035%=      5-min Rain = 0
KPD1 120039Z 16008KT 28/11 A3012 RMK A01 T02780111  RH  035%=      5-min Rain = 0
KPD1 120040Z 15006KT 28/11 A3013 RMK A01 T02770111  RH  036%=      5-min Rain = 0
KPD1 120041Z 15008KT 28/11 A3013 RMK A01 T02760111  RH  036%=      5-min Rain = 0
KPD1 120042Z 16008KT 28/11 A3013 RMK A01 T02760111  RH  036%=      5-min Rain = 0
KPD1 120043Z 16006KT 28/11 A3013 RMK A01 T02760111  RH  036%=      5-min Rain = 0
KPD1 120044Z 16007KT 28/11 A3013 RMK A01 T02760111  RH  036%=      5-min Rain = 0
KPD1 120045Z 16007KT 28/11 A3013 RMK A01 T02750111  RH  036%=      5-min Rain = 0
KPD1 120046Z 15009KT 27/11 A3013 RMK A01 T02740111  RH  036%=      5-min Rain = 0
KPD1 120047Z 16007KT 27/11 A3013 RMK A01 T02740111  RH  036%=      5-min Rain = 0
KPD1 120048Z 15007KT 27/11 A3013 RMK A01 T02740111  RH  036%=      5-min Rain = 0
KPD1 120049Z 15007KT 27/11 A3013 RMK A01 T02740111  RH  036%=      5-min Rain = 0
KPD1 120050Z 14008KT 27/11 A3013 RMK A01 T02740111  RH  036%=      5-min Rain = 0
KPD1 120051Z 15005KT 27/11 A3013 RMK A01 T02730110  RH  036%=      5-min Rain = 0
KPD1 120052Z 15008KT 27/11 A3013 RMK A01 T02730111  RH  036%=      5-min Rain = 0
KPD1 120053Z 16007KT 27/11 A3013 RMK A01 T02730110  RH  036%=      5-min Rain = 0
KPD1 120054Z 15006KT 27/11 A3013 RMK A01 T02730110  RH  036%=      5-min Rain = 0
KPD1 120055Z 14006KT 27/11 A3013 RMK A01 T02730111  RH  036%=      5-min Rain = 0
KPD1 120056Z 15006KT 27/11 A3013 RMK A01 T02720111  RH  036%=      5-min Rain = 0
KPD1 120057Z 16005KT 27/11 A3013 RMK A01 T02710111  RH  037%=      5-min Rain = 0
KPD1 120058Z 14005KT 27/11 A3013 RMK A01 T02700111  RH  037%=      5-min Rain = 0
KPD1 120059Z 15004KT 27/11 A3013 RMK A01 T02700111  RH  037%=      5-min Rain = 0
KPD1 120100Z 14004KT 27/11 A3013 RMK A01 T02680111  RH  037%=      5-min Rain = 0
KPD1 120101Z 15005KT 27/11 A3013 RMK A01 T02680111  RH  038%=      5-min Rain = 0
KPD1 120102Z 15005KT 27/11 A3013 RMK A01 T02670111  RH  038%=      5-min Rain = 0
KPD1 120103Z 13003KT 27/11 A3013 RMK A01 T02660111  RH  038%=      5-min Rain = 0
KPD1 120104Z 12003KT 27/11 A3013 RMK A01 T02650111  RH  038%=      5-min Rain = 0
KPD1 120105Z 11003KT 26/11 A3013 RMK A01 T02640111  RH  038%=      5-min Rain = 0
KPD1 120106Z 11003KT 26/11 A3013 RMK A01 T02630112  RH  039%=      5-min Rain = 0
KPD1 120107Z 12003KT 26/11 A3013 RMK A01 T02620112  RH  039%=      5-min Rain = 0
KPD1 120108Z 12003KT 26/11 A3013 RMK A01 T02610112  RH  039%=      5-min Rain = 0
KPD1 120109Z 12003KT 26/11 A3013 RMK A01 T02590112  RH  040%=      5-min Rain = 0
KPD1 120110Z 12004KT 26/11 A3013 RMK A01 T02580112  RH  040%=      5-min Rain = 0
KPD1 120111Z 13005KT 26/11 A3013 RMK A01 T02570111  RH  040%=      5-min Rain = 0
KPD1 120112Z 14004KT 26/11 A3013 RMK A01 T02560111  RH  040%=      5-min Rain = 0
KPD1 120113Z 14003KT 26/11 A3013 RMK A01 T02560111  RH  040%=      5-min Rain = 0
KPD1 120114Z 12003KT 26/11 A3013 RMK A01 T02550111  RH  040%=      5-min Rain = 0
KPD1 120115Z 13003KT 26/11 A3013 RMK A01 T02550111  RH  041%=      5-min Rain = 0
KPD1 120116Z 14004KT 25/11 A3014 RMK A01 T02540110  RH  040%=      5-min Rain = 0
KPD1 120117Z 14004KT 25/11 A3014 RMK A01 T02540110  RH  040%=      5-min Rain = 0
KPD1 120118Z 14005KT 25/11 A3014 RMK A01 T02540110  RH  040%=      5-min Rain = 0
KPD1 120119Z 14005KT 25/11 A3014 RMK A01 T02540110  RH  040%=      5-min Rain = 0
KPD1 120120Z 14006KT 26/11 A3014 RMK A01 T02550110  RH  040%=      5-min Rain = 0
KPD1 120121Z 14004KT 26/11 A3014 RMK A01 T02560110  RH  040%=      5-min Rain = 0
KPD1 120122Z 13004KT 26/11 A3014 RMK A01 T02560110  RH  040%=      5-min Rain = 0
KPD1 120123Z 14006KT 26/11 A3014 RMK A01 T02550110  RH  040%=      5-min Rain = 0
KPD1 120124Z 13006KT 26/11 A3014 RMK A01 T02550110  RH  040%=      5-min Rain = 0
KPD1 120125Z 14006KT 26/11 A3014 RMK A01 T02550110  RH  040%=      5-min Rain = 0
KPD1 120126Z 14006KT 26/11 A3014 RMK A01 T02550110  RH  040%=      5-min Rain = 0
KPD1 120127Z 14007KT 26/11 A3014 RMK A01 T02550110  RH  040%=      5-min Rain = 0
KPD1 120128Z 14005KT 26/11 A3014 RMK A01 T02550110  RH  040%=      5-min Rain = 0
KPD1 120129Z 14005KT 26/11 A3014 RMK A01 T02550110  RH  040%=      5-min Rain = 0
KPD1 120130Z 14006KT 26/11 A3014 RMK A01 T02550110  RH  040%=      5-min Rain = 0
KPD1 120131Z 14005KT 26/11 A3014 RMK A01 T02550110  RH  040%=      5-min Rain = 0
KPD1 120132Z 14005KT 25/11 A3014 RMK A01 T02540110  RH  040%=      5-min Rain = 0
KPD1 120133Z 13004KT 25/11 A3014 RMK A01 T02530110  RH  041%=      5-min Rain = 0
KPD1 120134Z 13006KT 25/11 A3014 RMK A01 T02530110  RH  041%=      5-min Rain = 0
KPD1 120135Z 13005KT 25/11 A3014 RMK A01 T02520110  RH  041%=      5-min Rain = 0
KPD1 120136Z 13005KT 25/11 A3014 RMK A01 T02520110  RH  041%=      5-min Rain = 0
KPD1 120137Z 14006KT 25/11 A3014 RMK A01 T02510110  RH  041%=      5-min Rain = 0
KPD1 120138Z 13004KT 25/11 A3014 RMK A01 T02510110  RH  041%=      5-min Rain = 0
KPD1 120139Z 14006KT 25/11 A3014 RMK A01 T02510110  RH  041%=      5-min Rain = 0
KPD1 120140Z 14006KT 25/11 A3014 RMK A01 T02510110  RH  041%=      5-min Rain = 0
KPD1 120141Z 14005KT 25/11 A3014 RMK A01 T02510110  RH  041%=      5-min Rain = 0
KPD1 120142Z 14005KT 25/11 A3014 RMK A01 T02500110  RH  041%=      5-min Rain = 0
KPD1 120143Z 14005KT 25/11 A3014 RMK A01 T02500110  RH  041%=      5-min Rain = 0
KPD1 120144Z 14004KT 25/11 A3014 RMK A01 T02500110  RH  041%=      5-min Rain = 0
KPD1 120145Z 15004KT 25/11 A3014 RMK A01 T02500110  RH  042%=      5-min Rain = 0
KPD1 120146Z 14005KT 25/11 A3014 RMK A01 T02490111  RH  042%=      5-min Rain = 0
KPD1 120147Z 14005KT 25/11 A3014 RMK A01 T02490111  RH  042%=      5-min Rain = 0
KPD1 120148Z 15005KT 25/11 A3014 RMK A01 T02480111  RH  042%=      5-min Rain = 0
KPD1 120149Z 14004KT 25/11 A3014 RMK A01 T02470110  RH  042%=      5-min Rain = 0
KPD1 120150Z 14005KT 25/11 A3014 RMK A01 T02470111  RH  042%=      5-min Rain = 0
KPD1 120151Z 14005KT 25/11 A3015 RMK A01 T02460110  RH  042%=      5-min Rain = 0
KPD1 120152Z 14004KT 25/11 A3015 RMK A01 T02460111  RH  043%=      5-min Rain = 0
KPD1 120153Z 14005KT 25/11 A3015 RMK A01 T02460111  RH  043%=      5-min Rain = 0
KPD1 120154Z 14004KT 25/11 A3015 RMK A01 T02460111  RH  043%=      5-min Rain = 0
KPD1 120155Z 14005KT 25/11 A3015 RMK A01 T02450110  RH  043%=      5-min Rain = 0
KPD1 120156Z 14005KT 25/11 A3015 RMK A01 T02450111  RH  043%=      5-min Rain = 0
KPD1 120157Z 14005KT 25/11 A3015 RMK A01 T02450111  RH  043%=      5-min Rain = 0
KPD1 120158Z 14004KT 25/11 A3015 RMK A01 T02450111  RH  043%=      5-min Rain = 0
KPD1 120159Z 14004KT 24/11 A3015 RMK A01 T02440111  RH  043%=      5-min Rain = 0
KPD1 120200Z 15004KT 24/11 A3015 RMK A01 T02440111  RH  043%=      5-min Rain = 0
KPD1 120201Z 15003KT 24/11 A3015 RMK A01 T02430111  RH  043%=      5-min Rain = 0
KPD1 120202Z 15003KT 24/11 A3015 RMK A01 T02420111  RH  044%=      5-min Rain = 0
KPD1 120203Z 15004KT 24/11 A3015 RMK A01 T02410111  RH  044%=      5-min Rain = 0
KPD1 120204Z 15004KT 24/11 A3015 RMK A01 T02410111  RH  044%=      5-min Rain = 0
KPD1 120205Z 17003KT 24/11 A3015 RMK A01 T02400111  RH  044%=      5-min Rain = 0
KPD1 120206Z 15005KT 24/11 A3015 RMK A01 T02400111  RH  044%=      5-min Rain = 0
KPD1 120207Z 15005KT 24/11 A3015 RMK A01 T02400111  RH  044%=      5-min Rain = 0
KPD1 120208Z 15004KT 24/11 A3015 RMK A01 T02390111  RH  044%=      5-min Rain = 0
KPD1 120209Z 16004KT 24/11 A3015 RMK A01 T02390110  RH  044%=      5-min Rain = 0
KPD1 120210Z 16004KT 24/11 A3015 RMK A01 T02390111  RH  044%=      5-min Rain = 0
KPD1 120211Z 16003KT 24/11 A3015 RMK A01 T02380111  RH  045%=      5-min Rain = 0
KPD1 120212Z 17003KT 24/11 A3015 RMK A01 T02380111  RH  045%=      5-min Rain = 0
KPD1 120213Z 17004KT 24/11 A3015 RMK A01 T02370111  RH  045%=      5-min Rain = 0
KPD1 120214Z 17004KT 24/11 A3015 RMK A01 T02370111  RH  045%=      5-min Rain = 0
KPD1 120215Z 15005KT 24/11 A3015 RMK A01 T02360111  RH  045%=      5-min Rain = 0
KPD1 120216Z 17006KT 24/11 A3015 RMK A01 T02360111  RH  045%=      5-min Rain = 0
KPD1 120217Z 16007KT 24/11 A3015 RMK A01 T02370111  RH  045%=      5-min Rain = 0
KPD1 120218Z 16007KT 24/11 A3015 RMK A01 T02390111  RH  044%=      5-min Rain = 0
KPD1 120219Z 17005KT 24/11 A3015 RMK A01 T02410111  RH  044%=      5-min Rain = 0
KPD1 120220Z 16004KT 24/11 A3015 RMK A01 T02420112  RH  044%=      5-min Rain = 0
KPD1 120221Z 17004KT 24/11 A3015 RMK A01 T02410112  RH  044%=      5-min Rain = 0
KPD1 120222Z 16005KT 24/11 A3015 RMK A01 T02410111  RH  044%=      5-min Rain = 0
KPD1 120223Z 16003KT 24/11 A3016 RMK A01 T02410111  RH  044%=      5-min Rain = 0
KPD1 120224Z 17004KT 24/11 A3016 RMK A01 T02410111  RH  044%=      5-min Rain = 0
KPD1 120225Z 16006KT 24/11 A3016 RMK A01 T02400111  RH  044%=      5-min Rain = 0
KPD1 120226Z 16005KT 24/11 A3016 RMK A01 T02400111  RH  044%=      5-min Rain = 0
KPD1 120227Z 16005KT 24/11 A3016 RMK A01 T02410111  RH  044%=      5-min Rain = 0
KPD1 120228Z 16005KT 24/11 A3016 RMK A01 T02400111  RH  044%=      5-min Rain = 0
KPD1 120229Z 16003KT 24/11 A3016 RMK A01 T02410111  RH  044%=      5-min Rain = 0
KPD1 120230Z 16003KT 24/11 A3016 RMK A01 T02400111  RH  044%=      5-min Rain = 0
KPD1 120231Z 16003KT 24/11 A3016 RMK A01 T02400111  RH  044%=      5-min Rain = 0
KPD1 120232Z 16003KT 24/11 A3016 RMK A01 T02400111  RH  044%=      5-min Rain = 0
KPD1 120233Z 16004KT 24/11 A3016 RMK A01 T02390111  RH  045%=      5-min Rain = 0
KPD1 120234Z 16003KT 24/11 A3016 RMK A01 T02380111  RH  045%=      5-min Rain = 0
KPD1 120235Z 17003KT 24/11 A3016 RMK A01 T02370111  RH  045%=      5-min Rain = 0
KPD1 120236Z 17003KT 24/11 A3016 RMK A01 T02360111  RH  045%=      5-min Rain = 0
KPD1 120237Z 17003KT 24/11 A3016 RMK A01 T02360111  RH  045%=      5-min Rain = 0
KPD1 120238Z 17003KT 24/11 A3016 RMK A01 T02350111  RH  046%=      5-min Rain = 0
KPD1 120239Z 17004KT 23/11 A3016 RMK A01 T02340111  RH  046%=      5-min Rain = 0
KPD1 120240Z 16003KT 23/11 A3016 RMK A01 T02330111  RH  046%=      5-min Rain = 0
KPD1 120241Z 16003KT 23/11 A3016 RMK A01 T02330111  RH  046%=      5-min Rain = 0
KPD1 120242Z 16003KT 23/11 A3016 RMK A01 T02320111  RH  046%=      5-min Rain = 0
KPD1 120243Z 17003KT 23/11 A3016 RMK A01 T02310110  RH  046%=      5-min Rain = 0
KPD1 120244Z 17003KT 23/11 A3016 RMK A01 T02300111  RH  047%=      5-min Rain = 0
KPD1 120245Z 17003KT 23/11 A3016 RMK A01 T02300111  RH  047%=      5-min Rain = 0
KPD1 120246Z 17003KT 23/11 A3016 RMK A01 T02290111  RH  047%=      5-min Rain = 0
KPD1 120247Z 17003KT 23/11 A3016 RMK A01 T02290111  RH  047%=      5-min Rain = 0
KPD1 120248Z 16003KT 23/11 A3016 RMK A01 T02280111  RH  047%=      5-min Rain = 0
KPD1 120249Z 16003KT 23/11 A3016 RMK A01 T02270110  RH  048%=      5-min Rain = 0
KPD1 120250Z 16003KT 23/11 A3016 RMK A01 T02270111  RH  048%=      5-min Rain = 0
KPD1 120251Z 17003KT 23/11 A3016 RMK A01 T02270110  RH  048%=      5-min Rain = 0
KPD1 120252Z 17004KT 23/11 A3016 RMK A01 T02260111  RH  048%=      5-min Rain = 0
KPD1 120253Z 17005KT 23/11 A3016 RMK A01 T02260110  RH  048%=      5-min Rain = 0
KPD1 120254Z 17005KT 23/11 A3016 RMK A01 T02250110  RH  048%=      5-min Rain = 0
KPD1 120255Z 16005KT 23/11 A3016 RMK A01 T02250110  RH  048%=      5-min Rain = 0
KPD1 120256Z 16005KT 22/11 A3016 RMK A01 T02240110  RH  048%=      5-min Rain = 0
KPD1 120257Z 17004KT 22/11 A3016 RMK A01 T02240110  RH  048%=      5-min Rain = 0
KPD1 120258Z 16004KT 22/11 A3016 RMK A01 T02240110  RH  048%=      5-min Rain = 0
KPD1 120259Z 16004KT 22/11 A3016 RMK A01 T02240110  RH  048%=      5-min Rain = 0
KPD1 120300Z 15004KT 22/11 A3016 RMK A01 T02240110  RH  048%=      5-min Rain = 0
KPD1 120301Z 16004KT 22/11 A3016 RMK A01 T02240110  RH  048%=      5-min Rain = 0
KPD1 120302Z 16004KT 23/11 A3016 RMK A01 T02250110  RH  048%=      5-min Rain = 0
KPD1 120303Z 16004KT 23/11 A3016 RMK A01 T02250110  RH  048%=      5-min Rain = 0
KPD1 120304Z 16003KT 23/11 A3016 RMK A01 T02250110  RH  048%=      5-min Rain = 0
KPD1 120305Z 16004KT 23/11 A3016 RMK A01 T02250110  RH  048%=      5-min Rain = 0
KPD1 120306Z 16004KT 23/11 A3016 RMK A01 T02250110  RH  048%=      5-min Rain = 0
KPD1 120307Z 17004KT 23/11 A3016 RMK A01 T02250110  RH  048%=      5-min Rain = 0
KPD1 120308Z 17005KT 23/11 A3016 RMK A01 T02250110  RH  048%=      5-min Rain = 0
KPD1 120309Z 16005KT 23/11 A3016 RMK A01 T02250110  RH  048%=      5-min Rain = 0
KPD1 120310Z 17005KT 23/11 A3016 RMK A01 T02250110  RH  048%=      5-min Rain = 0
KPD1 120311Z 16004KT 23/11 A3016 RMK A01 T02250110  RH  048%=      5-min Rain = 0
KPD1 120312Z 16004KT 23/11 A3016 RMK A01 T02250110  RH  048%=      5-min Rain = 0
KPD1 120313Z 16004KT 23/11 A3016 RMK A01 T02250110  RH  048%=      5-min Rain = 0
KPD1 120314Z 16003KT 23/11 A3016 RMK A01 T02250110  RH  048%=      5-min Rain = 0
KPD1 120315Z 16004KT 23/11 A3016 RMK A01 T02260110  RH  048%=      5-min Rain = 0
KPD1 120316Z 15004KT 23/11 A3016 RMK A01 T02260110  RH  048%=      5-min Rain = 0
KPD1 120317Z 16004KT 23/11 A3016 RMK A01 T02260110  RH  048%=      5-min Rain = 0
KPD1 120318Z 16004KT 23/11 A3016 RMK A01 T02250110  RH  048%=      5-min Rain = 0
KPD1 120319Z 16004KT 23/11 A3016 RMK A01 T02250109  RH  048%=      5-min Rain = 0
KPD1 120320Z 16003KT 23/11 A3016 RMK A01 T02250109  RH  048%=      5-min Rain = 0
KPD1 120321Z 17003KT 22/11 A3016 RMK A01 T02240109  RH  048%=      5-min Rain = 0
KPD1 120322Z 17003KT 22/11 A3016 RMK A01 T02240110  RH  048%=      5-min Rain = 0
KPD1 120323Z 16003KT 22/11 A3016 RMK A01 T02230109  RH  049%=      5-min Rain = 0
KPD1 120324Z 16003KT 22/11 A3016 RMK A01 T02220109  RH  049%=      5-min Rain = 0
KPD1 120325Z 17003KT 22/11 A3016 RMK A01 T02220109  RH  049%=      5-min Rain = 0
KPD1 120326Z 16003KT 22/11 A3016 RMK A01 T02210109  RH  049%=      5-min Rain = 0
KPD1 120327Z 16003KT 22/11 A3016 RMK A01 T02200109  RH  049%=      5-min Rain = 0
KPD1 120328Z 17003KT 22/11 A3016 RMK A01 T02200109  RH  049%=      5-min Rain = 0
KPD1 120329Z 17004KT 22/11 A3016 RMK A01 T02190109  RH  050%=      5-min Rain = 0
KPD1 120330Z 17004KT 22/11 A3016 RMK A01 T02180109  RH  050%=      5-min Rain = 0
KPD1 120331Z 17003KT 22/11 A3016 RMK A01 T02180109  RH  050%=      5-min Rain = 0
KPD1 120332Z 16003KT 22/11 A3016 RMK A01 T02180109  RH  050%=      5-min Rain = 0
KPD1 120333Z 16004KT 22/11 A3016 RMK A01 T02170109  RH  050%=      5-min Rain = 0
KPD1 120334Z 16003KT 22/11 A3016 RMK A01 T02170109  RH  050%=      5-min Rain = 0
KPD1 120335Z 16003KT 22/11 A3016 RMK A01 T02170109  RH  050%=      5-min Rain = 0
KPD1 120336Z 16003KT 22/11 A3016 RMK A01 T02170109  RH  050%=      5-min Rain = 0
KPD1 120337Z 17003KT 22/11 A3016 RMK A01 T02170109  RH  050%=      5-min Rain = 0
KPD1 120338Z 16003KT 22/11 A3016 RMK A01 T02170109  RH  050%=      5-min Rain = 0
KPD1 120339Z 16003KT 22/11 A3016 RMK A01 T02160109  RH  050%=      5-min Rain = 0
KPD1 120340Z 16003KT 22/11 A3016 RMK A01 T02160109  RH  051%=      5-min Rain = 0
KPD1 120341Z 17003KT 22/11 A3016 RMK A01 T02150109  RH  051%=      5-min Rain = 0
KPD1 120342Z 17003KT 22/11 A3016 RMK A01 T02150109  RH  051%=      5-min Rain = 0
KPD1 120343Z 17004KT 22/11 A3016 RMK A01 T02150109  RH  051%=      5-min Rain = 0
KPD1 120344Z 16004KT 22/11 A3017 RMK A01 T02150110  RH  051%=      5-min Rain = 0
KPD1 120345Z 16004KT 22/11 A3017 RMK A01 T02150109  RH  051%=      5-min Rain = 0
KPD1 120346Z 16004KT 22/11 A3017 RMK A01 T02150109  RH  051%=      5-min Rain = 0
KPD1 120347Z 17004KT 21/11 A3017 RMK A01 T02140109  RH  051%=      5-min Rain = 0
KPD1 120348Z 16004KT 21/11 A3017 RMK A01 T02140109  RH  051%=      5-min Rain = 0
KPD1 120349Z 17004KT 21/11 A3017 RMK A01 T02140109  RH  051%=      5-min Rain = 0
KPD1 120350Z 16003KT 21/11 A3017 RMK A01 T02140109  RH  051%=      5-min Rain = 0
KPD1 120351Z 16003KT 21/11 A3017 RMK A01 T02130109  RH  051%=      5-min Rain = 0
KPD1 120352Z 16003KT 21/11 A3017 RMK A01 T02120109  RH  052%=      5-min Rain = 0
KPD1 120353Z 16003KT 21/11 A3017 RMK A01 T02120109  RH  052%=      5-min Rain = 0
KPD1 120354Z 17003KT 21/11 A3017 RMK A01 T02110109  RH  052%=      5-min Rain = 0
KPD1 120355Z 17003KT 21/11 A3017 RMK A01 T02100109  RH  052%=      5-min Rain = 0
KPD1 120356Z 17003KT 21/11 A3017 RMK A01 T02100109  RH  052%=      5-min Rain = 0
KPD1 120357Z 17003KT 21/11 A3017 RMK A01 T02100109  RH  052%=      5-min Rain = 0
KPD1 120358Z 17004KT 21/11 A3017 RMK A01 T02100109  RH  053%=      5-min Rain = 0
KPD1 120359Z 18003KT 21/11 A3017 RMK A01 T02090109  RH  053%=      5-min Rain = 0
KPD1 120400Z 18004KT 21/11 A3017 RMK A01 T02080109  RH  053%=      5-min Rain = 0
KPD1 120401Z 18004KT 21/11 A3017 RMK A01 T02080109  RH  053%=      5-min Rain = 0
KPD1 120402Z 19004KT 21/11 A3017 RMK A01 T02080109  RH  053%=      5-min Rain = 0
KPD1 120403Z 18004KT 21/11 A3017 RMK A01 T02080109  RH  053%=      5-min Rain = 0
KPD1 120404Z 18004KT 21/11 A3017 RMK A01 T02070109  RH  053%=      5-min Rain = 0
KPD1 120405Z 19004KT 21/11 A3017 RMK A01 T02070109  RH  054%=      5-min Rain = 0
KPD1 120406Z 19004KT 21/11 A3017 RMK A01 T02060109  RH  054%=      5-min Rain = 0
KPD1 120407Z 19004KT 21/11 A3017 RMK A01 T02060109  RH  054%=      5-min Rain = 0
KPD1 120408Z 19004KT 21/11 A3017 RMK A01 T02050109  RH  054%=      5-min Rain = 0
KPD1 120409Z 19004KT 20/11 A3017 RMK A01 T02040109  RH  054%=      5-min Rain = 0
KPD1 120410Z 18004KT 20/11 A3017 RMK A01 T02040109  RH  054%=      5-min Rain = 0
KPD1 120411Z 18004KT 20/11 A3017 RMK A01 T02030108  RH  054%=      5-min Rain = 0
KPD1 120412Z 18004KT 20/11 A3017 RMK A01 T02030108  RH  054%=      5-min Rain = 0
KPD1 120413Z 18004KT 20/11 A3017 RMK A01 T02030108  RH  054%=      5-min Rain = 0
KPD1 120414Z 18004KT 20/11 A3017 RMK A01 T02020107  RH  054%=      5-min Rain = 0
KPD1 120415Z 18004KT 20/11 A3017 RMK A01 T02030108  RH  054%=      5-min Rain = 0
KPD1 120416Z 18004KT 20/11 A3017 RMK A01 T02020107  RH  054%=      5-min Rain = 0
KPD1 120417Z 18004KT 20/11 A3017 RMK A01 T02020107  RH  054%=      5-min Rain = 0
KPD1 120418Z 18004KT 20/11 A3017 RMK A01 T02020107  RH  054%=      5-min Rain = 0
KPD1 120419Z 19004KT 20/11 A3017 RMK A01 T02030108  RH  054%=      5-min Rain = 0
KPD1 120420Z 19004KT 20/11 A3017 RMK A01 T02030108  RH  054%=      5-min Rain = 0
KPD1 120421Z 19004KT 20/11 A3017 RMK A01 T02040108  RH  054%=      5-min Rain = 0
KPD1 120422Z 19003KT 20/11 A3017 RMK A01 T02040108  RH  054%=      5-min Rain = 0
KPD1 120423Z 19003KT 20/11 A3017 RMK A01 T02040108  RH  054%=      5-min Rain = 0
KPD1 120424Z 18004KT 20/11 A3017 RMK A01 T02040108  RH  054%=      5-min Rain = 0
KPD1 120425Z 19004KT 20/11 A3017 RMK A01 T02040108  RH  054%=      5-min Rain = 0
KPD1 120426Z 19004KT 20/11 A3017 RMK A01 T02040108  RH  054%=      5-min Rain = 0
KPD1 120427Z 19004KT 20/11 A3017 RMK A01 T02030108  RH  054%=      5-min Rain = 0
KPD1 120428Z 19004KT 20/11 A3017 RMK A01 T02030109  RH  054%=      5-min Rain = 0
KPD1 120429Z 19004KT 20/11 A3017 RMK A01 T02030108  RH  055%=      5-min Rain = 0
KPD1 120430Z 19004KT 20/11 A3017 RMK A01 T02030109  RH  055%=      5-min Rain = 0
KPD1 120431Z 19004KT 20/11 A3017 RMK A01 T02020109  RH  055%=      5-min Rain = 0
KPD1 120432Z 19004KT 20/11 A3017 RMK A01 T02020109  RH  055%=      5-min Rain = 0
KPD1 120433Z 19004KT 20/11 A3017 RMK A01 T02020109  RH  055%=      5-min Rain = 0
KPD1 120434Z 19003KT 20/11 A3017 RMK A01 T02020109  RH  055%=      5-min Rain = 0
KPD1 120435Z 19004KT 20/11 A3017 RMK A01 T02010109  RH  055%=      5-min Rain = 0
KPD1 120436Z 19004KT 20/11 A3017 RMK A01 T02010109  RH  055%=      5-min Rain = 0
KPD1 120437Z 20004KT 20/11 A3017 RMK A01 T02010109  RH  055%=      5-min Rain = 0
KPD1 120438Z 20004KT 20/11 A3017 RMK A01 T02010110  RH  056%=      5-min Rain = 0
KPD1 120439Z 19005KT 20/11 A3017 RMK A01 T02010109  RH  056%=      5-min Rain = 0
KPD1 120440Z 19004KT 20/11 A3017 RMK A01 T02010110  RH  056%=      5-min Rain = 0
KPD1 120441Z 19004KT 20/11 A3017 RMK A01 T02000110  RH  056%=      5-min Rain = 0
KPD1 120442Z 19004KT 20/11 A3017 RMK A01 T02000110  RH  056%=      5-min Rain = 0
KPD1 120443Z 19004KT 20/11 A3017 RMK A01 T01990110  RH  056%=      5-min Rain = 0
KPD1 120444Z 19004KT 20/11 A3017 RMK A01 T01990110  RH  057%=      5-min Rain = 0
KPD1 120445Z 19004KT 20/11 A3017 RMK A01 T01980110  RH  057%=      5-min Rain = 0
KPD1 120446Z 19004KT 20/11 A3017 RMK A01 T01980110  RH  057%=      5-min Rain = 0
KPD1 120447Z 19004KT 20/11 A3017 RMK A01 T01980111  RH  057%=      5-min Rain = 0
KPD1 120448Z 19004KT 20/11 A3017 RMK A01 T01980110  RH  057%=      5-min Rain = 0
KPD1 120449Z 19004KT 20/11 A3017 RMK A01 T01980110  RH  057%=      5-min Rain = 0
KPD1 120450Z 19004KT 20/11 A3017 RMK A01 T01970110  RH  057%=      5-min Rain = 0
KPD1 120451Z 19003KT 20/11 A3017 RMK A01 T01970110  RH  057%=      5-min Rain = 0
KPD1 120452Z 19003KT 20/11 A3017 RMK A01 T01970111  RH  057%=      5-min Rain = 0
KPD1 120453Z 19004KT 20/11 A3017 RMK A01 T01970110  RH  057%=      5-min Rain = 0
KPD1 120454Z 18003KT 20/11 A3017 RMK A01 T01970111  RH  057%=      5-min Rain = 0
KPD1 120455Z 19003KT 20/11 A3017 RMK A01 T01970111  RH  058%=      5-min Rain = 0
KPD1 120456Z 19003KT 20/11 A3017 RMK A01 T01960111  RH  058%=      5-min Rain = 0
KPD1 120457Z 18003KT 20/11 A3017 RMK A01 T01960111  RH  058%=      5-min Rain = 0
KPD1 120458Z 18004KT 20/11 A3017 RMK A01 T01960111  RH  058%=      5-min Rain = 0
KPD1 120459Z 19004KT 20/11 A3017 RMK A01 T01970111  RH  058%=      5-min Rain = 0

Page generated in 0.0731 seconds.